<?xml version="1.0" encoding="utf-8"?>
<gpx xmlns:xsi="http://www.w3.org/2001/XMLSchema-instance" xmlns:xsd="http://www.w3.org/2001/XMLSchema" version="1.1" creator="Shapelink.com" xmlns="http://www.topografix.com/GPX/1/1" xmlns:gpxtpx="http://www.garmin.com/xmlschemas/TrackPointExtension/v1">
  <metadata>
    <name>Rullskidor - Klassisk 10.41 km, 2013-04-29</name>
    <desc></desc>
    <author><name>Alexander Engvall</name></author> 
    <time>2013-04-29T19:32:22Z</time>
  </metadata>
  <trk>
    <name>Rullskidor - Klassisk 10.41 km, 2013-04-29</name>
    <trkseg>
      <trkpt lat="59.4581353" lon="17.8044286">
        <ele>35.2</ele>
        <time>2013-04-29T19:32:22Z</time>
      </trkpt>
      <trkpt lat="59.4580646" lon="17.8045098">
        <ele>33.4</ele>
        <time>2013-04-29T19:32:26Z</time>
      </trkpt>
      <trkpt lat="59.4580159" lon="17.8046199">
        <ele>32.4</ele>
        <time>2013-04-29T19:32:30Z</time>
      </trkpt>
      <trkpt lat="59.4578731" lon="17.8048066">
        <ele>31</ele>
        <time>2013-04-29T19:32:35Z</time>
      </trkpt>
      <trkpt lat="59.4577145" lon="17.8050312">
        <ele>29.6</ele>
        <time>2013-04-29T19:32:40Z</time>
      </trkpt>
      <trkpt lat="59.4576113" lon="17.8052856">
        <ele>28.6</ele>
        <time>2013-04-29T19:32:44Z</time>
      </trkpt>
      <trkpt lat="59.4574967" lon="17.805493">
        <ele>27.4</ele>
        <time>2013-04-29T19:32:48Z</time>
      </trkpt>
      <trkpt lat="59.4574673" lon="17.8055094">
        <ele>27.2</ele>
        <time>2013-04-29T19:32:49Z</time>
      </trkpt>
      <trkpt lat="59.4573318" lon="17.8054683">
        <ele>26.2</ele>
        <time>2013-04-29T19:32:53Z</time>
      </trkpt>
      <trkpt lat="59.4571944" lon="17.8053739">
        <ele>25.2</ele>
        <time>2013-04-29T19:32:57Z</time>
      </trkpt>
      <trkpt lat="59.4570453" lon="17.8052206">
        <ele>24.2</ele>
        <time>2013-04-29T19:33:01Z</time>
      </trkpt>
      <trkpt lat="59.4568956" lon="17.8051505">
        <ele>23</ele>
        <time>2013-04-29T19:33:05Z</time>
      </trkpt>
      <trkpt lat="59.4567994" lon="17.8051175">
        <ele>22.6</ele>
        <time>2013-04-29T19:33:07Z</time>
      </trkpt>
      <trkpt lat="59.4566654" lon="17.8050539">
        <ele>22</ele>
        <time>2013-04-29T19:33:10Z</time>
      </trkpt>
      <trkpt lat="59.4564955" lon="17.8049115">
        <ele>21.2</ele>
        <time>2013-04-29T19:33:14Z</time>
      </trkpt>
      <trkpt lat="59.4562775" lon="17.8047523">
        <ele>20.4</ele>
        <time>2013-04-29T19:33:19Z</time>
      </trkpt>
      <trkpt lat="59.4562338" lon="17.8047087">
        <ele>20.2</ele>
        <time>2013-04-29T19:33:20Z</time>
      </trkpt>
      <trkpt lat="59.4561147" lon="17.8045643">
        <ele>19.4</ele>
        <time>2013-04-29T19:33:24Z</time>
      </trkpt>
      <trkpt lat="59.4560887" lon="17.8045495">
        <ele>19.2</ele>
        <time>2013-04-29T19:33:25Z</time>
      </trkpt>
      <trkpt lat="59.4558945" lon="17.8044153">
        <ele>18.4</ele>
        <time>2013-04-29T19:33:29Z</time>
      </trkpt>
      <trkpt lat="59.4558541" lon="17.8043758">
        <ele>18.2</ele>
        <time>2013-04-29T19:33:30Z</time>
      </trkpt>
      <trkpt lat="59.4556907" lon="17.8042831">
        <ele>17.4</ele>
        <time>2013-04-29T19:33:34Z</time>
      </trkpt>
      <trkpt lat="59.455613" lon="17.8042614">
        <ele>17</ele>
        <time>2013-04-29T19:33:36Z</time>
      </trkpt>
      <trkpt lat="59.4554733" lon="17.8042648">
        <ele>16.2</ele>
        <time>2013-04-29T19:33:40Z</time>
      </trkpt>
      <trkpt lat="59.455286" lon="17.8043135">
        <ele>15.2</ele>
        <time>2013-04-29T19:33:46Z</time>
      </trkpt>
      <trkpt lat="59.4552335" lon="17.8043419">
        <ele>14.8</ele>
        <time>2013-04-29T19:33:48Z</time>
      </trkpt>
      <trkpt lat="59.4551129" lon="17.804409">
        <ele>12.2</ele>
        <time>2013-04-29T19:34:07Z</time>
      </trkpt>
      <trkpt lat="59.455085" lon="17.8044447">
        <ele>12</ele>
        <time>2013-04-29T19:34:09Z</time>
      </trkpt>
      <trkpt lat="59.4550021" lon="17.8045983">
        <ele>11.4</ele>
        <time>2013-04-29T19:34:14Z</time>
      </trkpt>
      <trkpt lat="59.4548794" lon="17.8048052">
        <ele>10.6</ele>
        <time>2013-04-29T19:34:19Z</time>
      </trkpt>
      <trkpt lat="59.4546244" lon="17.8050166">
        <ele>10.6</ele>
        <time>2013-04-29T19:34:24Z</time>
      </trkpt>
      <trkpt lat="59.4545836" lon="17.8050751">
        <ele>10.6</ele>
        <time>2013-04-29T19:34:25Z</time>
      </trkpt>
      <trkpt lat="59.4543991" lon="17.805293">
        <ele>10.6</ele>
        <time>2013-04-29T19:34:29Z</time>
      </trkpt>
      <trkpt lat="59.4543108" lon="17.8053911">
        <ele>10.6</ele>
        <time>2013-04-29T19:34:31Z</time>
      </trkpt>
      <trkpt lat="59.4542263" lon="17.8055108">
        <ele>10.8</ele>
        <time>2013-04-29T19:34:33Z</time>
      </trkpt>
      <trkpt lat="59.4541899" lon="17.8055494">
        <ele>11</ele>
        <time>2013-04-29T19:34:34Z</time>
      </trkpt>
      <trkpt lat="59.4539865" lon="17.8058586">
        <ele>11.8</ele>
        <time>2013-04-29T19:34:40Z</time>
      </trkpt>
      <trkpt lat="59.4539289" lon="17.805941">
        <ele>12</ele>
        <time>2013-04-29T19:34:42Z</time>
      </trkpt>
      <trkpt lat="59.4537993" lon="17.8061183">
        <ele>13.2</ele>
        <time>2013-04-29T19:34:45Z</time>
      </trkpt>
      <trkpt lat="59.4536335" lon="17.8063538">
        <ele>14.6</ele>
        <time>2013-04-29T19:34:49Z</time>
      </trkpt>
      <trkpt lat="59.4535693" lon="17.8064789">
        <ele>15.4</ele>
        <time>2013-04-29T19:34:51Z</time>
      </trkpt>
      <trkpt lat="59.4533848" lon="17.806795">
        <ele>17.8</ele>
        <time>2013-04-29T19:34:55Z</time>
      </trkpt>
      <trkpt lat="59.4532775" lon="17.8069511">
        <ele>19.4</ele>
        <time>2013-04-29T19:34:58Z</time>
      </trkpt>
      <trkpt lat="59.4531964" lon="17.8070567">
        <ele>20.2</ele>
        <time>2013-04-29T19:35:00Z</time>
      </trkpt>
      <trkpt lat="59.4530003" lon="17.807345">
        <ele>22.2</ele>
        <time>2013-04-29T19:35:05Z</time>
      </trkpt>
      <trkpt lat="59.4529334" lon="17.8074659">
        <ele>23</ele>
        <time>2013-04-29T19:35:07Z</time>
      </trkpt>
      <trkpt lat="59.4528156" lon="17.8076809">
        <ele>24</ele>
        <time>2013-04-29T19:35:10Z</time>
      </trkpt>
      <trkpt lat="59.4527555" lon="17.807843">
        <ele>24.8</ele>
        <time>2013-04-29T19:35:12Z</time>
      </trkpt>
      <trkpt lat="59.4527111" lon="17.8079002">
        <ele>25</ele>
        <time>2013-04-29T19:35:13Z</time>
      </trkpt>
      <trkpt lat="59.4526188" lon="17.8080853">
        <ele>25.6</ele>
        <time>2013-04-29T19:35:16Z</time>
      </trkpt>
      <trkpt lat="59.4524491" lon="17.8083992">
        <ele>26.2</ele>
        <time>2013-04-29T19:35:21Z</time>
      </trkpt>
      <trkpt lat="59.4523135" lon="17.8086617">
        <ele>26.8</ele>
        <time>2013-04-29T19:35:25Z</time>
      </trkpt>
      <trkpt lat="59.4522754" lon="17.8087169">
        <ele>27</ele>
        <time>2013-04-29T19:35:26Z</time>
      </trkpt>
      <trkpt lat="59.4521818" lon="17.808906">
        <ele>27.4</ele>
        <time>2013-04-29T19:35:29Z</time>
      </trkpt>
      <trkpt lat="59.452146" lon="17.808964">
        <ele>27.6</ele>
        <time>2013-04-29T19:35:30Z</time>
      </trkpt>
      <trkpt lat="59.4521096" lon="17.809022">
        <ele>27.8</ele>
        <time>2013-04-29T19:35:31Z</time>
      </trkpt>
      <trkpt lat="59.4520809" lon="17.8090954">
        <ele>27.8</ele>
        <time>2013-04-29T19:35:32Z</time>
      </trkpt>
      <trkpt lat="59.4519923" lon="17.8092785">
        <ele>28.2</ele>
        <time>2013-04-29T19:35:35Z</time>
      </trkpt>
      <trkpt lat="59.4519321" lon="17.809407">
        <ele>28.4</ele>
        <time>2013-04-29T19:35:37Z</time>
      </trkpt>
      <trkpt lat="59.4518469" lon="17.8095965">
        <ele>28.8</ele>
        <time>2013-04-29T19:35:40Z</time>
      </trkpt>
      <trkpt lat="59.4516988" lon="17.8099462">
        <ele>29.4</ele>
        <time>2013-04-29T19:35:46Z</time>
      </trkpt>
      <trkpt lat="59.4516684" lon="17.8099962">
        <ele>29.6</ele>
        <time>2013-04-29T19:35:47Z</time>
      </trkpt>
      <trkpt lat="59.4516217" lon="17.8101077">
        <ele>29.8</ele>
        <time>2013-04-29T19:35:49Z</time>
      </trkpt>
      <trkpt lat="59.4515926" lon="17.810157">
        <ele>30</ele>
        <time>2013-04-29T19:35:50Z</time>
      </trkpt>
      <trkpt lat="59.4514787" lon="17.8104055">
        <ele>31</ele>
        <time>2013-04-29T19:35:55Z</time>
      </trkpt>
      <trkpt lat="59.4514097" lon="17.810658">
        <ele>32.2</ele>
        <time>2013-04-29T19:35:59Z</time>
      </trkpt>
      <trkpt lat="59.451259" lon="17.8110092">
        <ele>33.8</ele>
        <time>2013-04-29T19:36:05Z</time>
      </trkpt>
      <trkpt lat="59.4511327" lon="17.8112189">
        <ele>34.8</ele>
        <time>2013-04-29T19:36:09Z</time>
      </trkpt>
      <trkpt lat="59.4511104" lon="17.8112681">
        <ele>35</ele>
        <time>2013-04-29T19:36:10Z</time>
      </trkpt>
      <trkpt lat="59.4510256" lon="17.8114379">
        <ele>35.4</ele>
        <time>2013-04-29T19:36:13Z</time>
      </trkpt>
      <trkpt lat="59.4509037" lon="17.8116376">
        <ele>35.4</ele>
        <time>2013-04-29T19:36:17Z</time>
      </trkpt>
      <trkpt lat="59.4508736" lon="17.8116895">
        <ele>35.2</ele>
        <time>2013-04-29T19:36:18Z</time>
      </trkpt>
      <trkpt lat="59.4507712" lon="17.8120039">
        <ele>35.8</ele>
        <time>2013-04-29T19:36:23Z</time>
      </trkpt>
      <trkpt lat="59.4506819" lon="17.8122487">
        <ele>36.2</ele>
        <time>2013-04-29T19:36:27Z</time>
      </trkpt>
      <trkpt lat="59.4505529" lon="17.8125274">
        <ele>36.8</ele>
        <time>2013-04-29T19:36:32Z</time>
      </trkpt>
      <trkpt lat="59.4504309" lon="17.8128724">
        <ele>37.8</ele>
        <time>2013-04-29T19:36:37Z</time>
      </trkpt>
      <trkpt lat="59.4503325" lon="17.8131842">
        <ele>38.6</ele>
        <time>2013-04-29T19:36:42Z</time>
      </trkpt>
      <trkpt lat="59.4502261" lon="17.8134397">
        <ele>39.4</ele>
        <time>2013-04-29T19:36:46Z</time>
      </trkpt>
      <trkpt lat="59.4500894" lon="17.8137983">
        <ele>40.2</ele>
        <time>2013-04-29T19:36:51Z</time>
      </trkpt>
      <trkpt lat="59.4500178" lon="17.8139958">
        <ele>40.4</ele>
        <time>2013-04-29T19:36:54Z</time>
      </trkpt>
      <trkpt lat="59.4499613" lon="17.8141404">
        <ele>40.8</ele>
        <time>2013-04-29T19:36:56Z</time>
      </trkpt>
      <trkpt lat="59.4498995" lon="17.8143533">
        <ele>40.6</ele>
        <time>2013-04-29T19:36:59Z</time>
      </trkpt>
      <trkpt lat="59.449878" lon="17.8144031">
        <ele>40.6</ele>
        <time>2013-04-29T19:37:00Z</time>
      </trkpt>
      <trkpt lat="59.449861" lon="17.8144608">
        <ele>40.6</ele>
        <time>2013-04-29T19:37:01Z</time>
      </trkpt>
      <trkpt lat="59.4498498" lon="17.8145334">
        <ele>40.4</ele>
        <time>2013-04-29T19:37:02Z</time>
      </trkpt>
      <trkpt lat="59.4497911" lon="17.8146797">
        <ele>40.4</ele>
        <time>2013-04-29T19:37:05Z</time>
      </trkpt>
      <trkpt lat="59.4497573" lon="17.8148329">
        <ele>40.4</ele>
        <time>2013-04-29T19:37:08Z</time>
      </trkpt>
      <trkpt lat="59.4497539" lon="17.8149029">
        <ele>40.4</ele>
        <time>2013-04-29T19:37:09Z</time>
      </trkpt>
      <trkpt lat="59.449717" lon="17.8152473">
        <ele>40.2</ele>
        <time>2013-04-29T19:37:14Z</time>
      </trkpt>
      <trkpt lat="59.4496319" lon="17.8155717">
        <ele>40</ele>
        <time>2013-04-29T19:37:19Z</time>
      </trkpt>
      <trkpt lat="59.4495231" lon="17.8158925">
        <ele>39.8</ele>
        <time>2013-04-29T19:37:24Z</time>
      </trkpt>
      <trkpt lat="59.4493893" lon="17.8161659">
        <ele>39.8</ele>
        <time>2013-04-29T19:37:29Z</time>
      </trkpt>
      <trkpt lat="59.4492986" lon="17.8163266">
        <ele>39.6</ele>
        <time>2013-04-29T19:37:33Z</time>
      </trkpt>
      <trkpt lat="59.4492105" lon="17.8165725">
        <ele>39.4</ele>
        <time>2013-04-29T19:37:37Z</time>
      </trkpt>
      <trkpt lat="59.4490981" lon="17.8169218">
        <ele>39</ele>
        <time>2013-04-29T19:37:43Z</time>
      </trkpt>
      <trkpt lat="59.44902" lon="17.817165">
        <ele>38.8</ele>
        <time>2013-04-29T19:37:47Z</time>
      </trkpt>
      <trkpt lat="59.4489775" lon="17.8173591">
        <ele>38.6</ele>
        <time>2013-04-29T19:37:51Z</time>
      </trkpt>
      <trkpt lat="59.448919" lon="17.8175935">
        <ele>38.4</ele>
        <time>2013-04-29T19:37:55Z</time>
      </trkpt>
      <trkpt lat="59.4488574" lon="17.8178307">
        <ele>38.2</ele>
        <time>2013-04-29T19:37:59Z</time>
      </trkpt>
      <trkpt lat="59.4488072" lon="17.8181322">
        <ele>37.8</ele>
        <time>2013-04-29T19:38:04Z</time>
      </trkpt>
      <trkpt lat="59.4487435" lon="17.8184441">
        <ele>37.4</ele>
        <time>2013-04-29T19:38:09Z</time>
      </trkpt>
      <trkpt lat="59.4487049" lon="17.8187345">
        <ele>37.2</ele>
        <time>2013-04-29T19:38:14Z</time>
      </trkpt>
      <trkpt lat="59.4486286" lon="17.8190528">
        <ele>36.4</ele>
        <time>2013-04-29T19:38:19Z</time>
      </trkpt>
      <trkpt lat="59.4486197" lon="17.8193889">
        <ele>36.2</ele>
        <time>2013-04-29T19:38:24Z</time>
      </trkpt>
      <trkpt lat="59.4486192" lon="17.8196825">
        <ele>36</ele>
        <time>2013-04-29T19:38:28Z</time>
      </trkpt>
      <trkpt lat="59.4486063" lon="17.819971">
        <ele>36</ele>
        <time>2013-04-29T19:38:32Z</time>
      </trkpt>
      <trkpt lat="59.448577" lon="17.8202379">
        <ele>35.6</ele>
        <time>2013-04-29T19:38:36Z</time>
      </trkpt>
      <trkpt lat="59.4485659" lon="17.8205501">
        <ele>35.4</ele>
        <time>2013-04-29T19:38:40Z</time>
      </trkpt>
      <trkpt lat="59.4486038" lon="17.8209686">
        <ele>35.6</ele>
        <time>2013-04-29T19:38:45Z</time>
      </trkpt>
      <trkpt lat="59.4486031" lon="17.8211494">
        <ele>35.8</ele>
        <time>2013-04-29T19:38:47Z</time>
      </trkpt>
      <trkpt lat="59.4485894" lon="17.8213853">
        <ele>35.6</ele>
        <time>2013-04-29T19:38:50Z</time>
      </trkpt>
      <trkpt lat="59.4485876" lon="17.8216974">
        <ele>35.6</ele>
        <time>2013-04-29T19:38:54Z</time>
      </trkpt>
      <trkpt lat="59.4485826" lon="17.8217758">
        <ele>35.6</ele>
        <time>2013-04-29T19:38:55Z</time>
      </trkpt>
      <trkpt lat="59.4485911" lon="17.8220991">
        <ele>35.8</ele>
        <time>2013-04-29T19:38:59Z</time>
      </trkpt>
      <trkpt lat="59.448615" lon="17.8224851">
        <ele>36.4</ele>
        <time>2013-04-29T19:39:04Z</time>
      </trkpt>
      <trkpt lat="59.4486138" lon="17.8227313">
        <ele>36.6</ele>
        <time>2013-04-29T19:39:07Z</time>
      </trkpt>
      <trkpt lat="59.4486109" lon="17.8228938">
        <ele>36.6</ele>
        <time>2013-04-29T19:39:09Z</time>
      </trkpt>
      <trkpt lat="59.4486272" lon="17.8232098">
        <ele>36.6</ele>
        <time>2013-04-29T19:39:13Z</time>
      </trkpt>
      <trkpt lat="59.4486275" lon="17.8232818">
        <ele>36.8</ele>
        <time>2013-04-29T19:39:14Z</time>
      </trkpt>
      <trkpt lat="59.448642" lon="17.8235138">
        <ele>36.6</ele>
        <time>2013-04-29T19:39:17Z</time>
      </trkpt>
      <trkpt lat="59.448636" lon="17.8236934">
        <ele>36.6</ele>
        <time>2013-04-29T19:39:19Z</time>
      </trkpt>
      <trkpt lat="59.4486376" lon="17.8237547">
        <ele>36.4</ele>
        <time>2013-04-29T19:39:20Z</time>
      </trkpt>
      <trkpt lat="59.448627" lon="17.823836">
        <ele>36.4</ele>
        <time>2013-04-29T19:39:21Z</time>
      </trkpt>
      <trkpt lat="59.4485945" lon="17.8241247">
        <ele>36</ele>
        <time>2013-04-29T19:39:25Z</time>
      </trkpt>
      <trkpt lat="59.4484906" lon="17.8242732">
        <ele>35.4</ele>
        <time>2013-04-29T19:39:29Z</time>
      </trkpt>
      <trkpt lat="59.4483088" lon="17.824397">
        <ele>35.2</ele>
        <time>2013-04-29T19:39:34Z</time>
      </trkpt>
      <trkpt lat="59.4481415" lon="17.8245634">
        <ele>34.6</ele>
        <time>2013-04-29T19:39:38Z</time>
      </trkpt>
      <trkpt lat="59.4479756" lon="17.8247079">
        <ele>34.4</ele>
        <time>2013-04-29T19:39:42Z</time>
      </trkpt>
      <trkpt lat="59.4477817" lon="17.8248525">
        <ele>34</ele>
        <time>2013-04-29T19:39:46Z</time>
      </trkpt>
      <trkpt lat="59.4477313" lon="17.8248854">
        <ele>34</ele>
        <time>2013-04-29T19:39:47Z</time>
      </trkpt>
      <trkpt lat="59.4474806" lon="17.8250632">
        <ele>33.6</ele>
        <time>2013-04-29T19:39:53Z</time>
      </trkpt>
      <trkpt lat="59.4473148" lon="17.8252126">
        <ele>33.4</ele>
        <time>2013-04-29T19:39:57Z</time>
      </trkpt>
      <trkpt lat="59.4471989" lon="17.8253319">
        <ele>33.4</ele>
        <time>2013-04-29T19:40:00Z</time>
      </trkpt>
      <trkpt lat="59.4471262" lon="17.8253887">
        <ele>33.8</ele>
        <time>2013-04-29T19:40:02Z</time>
      </trkpt>
      <trkpt lat="59.4469642" lon="17.8254789">
        <ele>34.2</ele>
        <time>2013-04-29T19:40:07Z</time>
      </trkpt>
      <trkpt lat="59.4468376" lon="17.8256165">
        <ele>34.6</ele>
        <time>2013-04-29T19:40:11Z</time>
      </trkpt>
      <trkpt lat="59.4468054" lon="17.8256136">
        <ele>34.6</ele>
        <time>2013-04-29T19:40:12Z</time>
      </trkpt>
      <trkpt lat="59.4466497" lon="17.8256454">
        <ele>35.2</ele>
        <time>2013-04-29T19:40:16Z</time>
      </trkpt>
      <trkpt lat="59.4464373" lon="17.8257066">
        <ele>36.2</ele>
        <time>2013-04-29T19:40:21Z</time>
      </trkpt>
      <trkpt lat="59.4463882" lon="17.825704">
        <ele>36.6</ele>
        <time>2013-04-29T19:40:22Z</time>
      </trkpt>
      <trkpt lat="59.4462662" lon="17.8257073">
        <ele>37.2</ele>
        <time>2013-04-29T19:40:25Z</time>
      </trkpt>
      <trkpt lat="59.4461144" lon="17.8257157">
        <ele>38.2</ele>
        <time>2013-04-29T19:40:29Z</time>
      </trkpt>
      <trkpt lat="59.4460225" lon="17.8257056">
        <ele>38.4</ele>
        <time>2013-04-29T19:40:31Z</time>
      </trkpt>
      <trkpt lat="59.4459648" lon="17.82569">
        <ele>38.6</ele>
        <time>2013-04-29T19:40:32Z</time>
      </trkpt>
      <trkpt lat="59.4459073" lon="17.8256793">
        <ele>38.6</ele>
        <time>2013-04-29T19:40:33Z</time>
      </trkpt>
      <trkpt lat="59.4458406" lon="17.8256873">
        <ele>38.8</ele>
        <time>2013-04-29T19:40:34Z</time>
      </trkpt>
      <trkpt lat="59.4456443" lon="17.825665">
        <ele>39</ele>
        <time>2013-04-29T19:40:38Z</time>
      </trkpt>
      <trkpt lat="59.4455567" lon="17.8256639">
        <ele>39.2</ele>
        <time>2013-04-29T19:40:40Z</time>
      </trkpt>
      <trkpt lat="59.4454785" lon="17.8256672">
        <ele>39</ele>
        <time>2013-04-29T19:40:42Z</time>
      </trkpt>
      <trkpt lat="59.445432" lon="17.8256517">
        <ele>39</ele>
        <time>2013-04-29T19:40:43Z</time>
      </trkpt>
      <trkpt lat="59.4453206" lon="17.825617">
        <ele>39</ele>
        <time>2013-04-29T19:40:46Z</time>
      </trkpt>
      <trkpt lat="59.4452813" lon="17.825603">
        <ele>38.8</ele>
        <time>2013-04-29T19:40:47Z</time>
      </trkpt>
      <trkpt lat="59.4452231" lon="17.8255638">
        <ele>38.8</ele>
        <time>2013-04-29T19:40:49Z</time>
      </trkpt>
      <trkpt lat="59.4451542" lon="17.8255195">
        <ele>38.8</ele>
        <time>2013-04-29T19:40:51Z</time>
      </trkpt>
      <trkpt lat="59.4450424" lon="17.8254573">
        <ele>38.4</ele>
        <time>2013-04-29T19:40:55Z</time>
      </trkpt>
      <trkpt lat="59.4449727" lon="17.8254264">
        <ele>38.4</ele>
        <time>2013-04-29T19:40:57Z</time>
      </trkpt>
      <trkpt lat="59.4448485" lon="17.8253947">
        <ele>38.2</ele>
        <time>2013-04-29T19:41:00Z</time>
      </trkpt>
      <trkpt lat="59.4446323" lon="17.8253597">
        <ele>38</ele>
        <time>2013-04-29T19:41:05Z</time>
      </trkpt>
      <trkpt lat="59.4444347" lon="17.8253243">
        <ele>37.6</ele>
        <time>2013-04-29T19:41:10Z</time>
      </trkpt>
      <trkpt lat="59.4443407" lon="17.8252872">
        <ele>37.6</ele>
        <time>2013-04-29T19:41:12Z</time>
      </trkpt>
      <trkpt lat="59.4443043" lon="17.8252903">
        <ele>37.6</ele>
        <time>2013-04-29T19:41:13Z</time>
      </trkpt>
      <trkpt lat="59.4441619" lon="17.8252824">
        <ele>37.4</ele>
        <time>2013-04-29T19:41:16Z</time>
      </trkpt>
      <trkpt lat="59.444119" lon="17.8252725">
        <ele>37.4</ele>
        <time>2013-04-29T19:41:17Z</time>
      </trkpt>
      <trkpt lat="59.4439144" lon="17.8252163">
        <ele>37.2</ele>
        <time>2013-04-29T19:41:22Z</time>
      </trkpt>
      <trkpt lat="59.4438763" lon="17.8252244">
        <ele>37.2</ele>
        <time>2013-04-29T19:41:23Z</time>
      </trkpt>
      <trkpt lat="59.4436722" lon="17.825268">
        <ele>37</ele>
        <time>2013-04-29T19:41:27Z</time>
      </trkpt>
      <trkpt lat="59.4434661" lon="17.8253322">
        <ele>37</ele>
        <time>2013-04-29T19:41:31Z</time>
      </trkpt>
      <trkpt lat="59.4434133" lon="17.8253535">
        <ele>37</ele>
        <time>2013-04-29T19:41:32Z</time>
      </trkpt>
      <trkpt lat="59.4432784" lon="17.8254022">
        <ele>37</ele>
        <time>2013-04-29T19:41:35Z</time>
      </trkpt>
      <trkpt lat="59.4431369" lon="17.8254135">
        <ele>37</ele>
        <time>2013-04-29T19:41:38Z</time>
      </trkpt>
      <trkpt lat="59.4430226" lon="17.8254408">
        <ele>37.2</ele>
        <time>2013-04-29T19:41:41Z</time>
      </trkpt>
      <trkpt lat="59.4429238" lon="17.8254801">
        <ele>37.4</ele>
        <time>2013-04-29T19:41:43Z</time>
      </trkpt>
      <trkpt lat="59.4428715" lon="17.8254775">
        <ele>37.4</ele>
        <time>2013-04-29T19:41:44Z</time>
      </trkpt>
      <trkpt lat="59.4427465" lon="17.8255203">
        <ele>37.8</ele>
        <time>2013-04-29T19:41:47Z</time>
      </trkpt>
      <trkpt lat="59.4426522" lon="17.8255007">
        <ele>37.6</ele>
        <time>2013-04-29T19:41:49Z</time>
      </trkpt>
      <trkpt lat="59.4425299" lon="17.825516">
        <ele>37.6</ele>
        <time>2013-04-29T19:41:52Z</time>
      </trkpt>
      <trkpt lat="59.4423063" lon="17.8256008">
        <ele>37.6</ele>
        <time>2013-04-29T19:41:57Z</time>
      </trkpt>
      <trkpt lat="59.4421888" lon="17.8256283">
        <ele>37.2</ele>
        <time>2013-04-29T19:42:01Z</time>
      </trkpt>
      <trkpt lat="59.4420607" lon="17.8256751">
        <ele>36.6</ele>
        <time>2013-04-29T19:42:05Z</time>
      </trkpt>
      <trkpt lat="59.4420283" lon="17.8257036">
        <ele>36.6</ele>
        <time>2013-04-29T19:42:06Z</time>
      </trkpt>
      <trkpt lat="59.4418944" lon="17.8257754">
        <ele>35.8</ele>
        <time>2013-04-29T19:42:10Z</time>
      </trkpt>
      <trkpt lat="59.441738" lon="17.8258941">
        <ele>35.2</ele>
        <time>2013-04-29T19:42:14Z</time>
      </trkpt>
      <trkpt lat="59.4414941" lon="17.8259899">
        <ele>34.8</ele>
        <time>2013-04-29T19:42:19Z</time>
      </trkpt>
      <trkpt lat="59.4414515" lon="17.8260325">
        <ele>34.6</ele>
        <time>2013-04-29T19:42:20Z</time>
      </trkpt>
      <trkpt lat="59.4412846" lon="17.8261245">
        <ele>34.2</ele>
        <time>2013-04-29T19:42:24Z</time>
      </trkpt>
      <trkpt lat="59.4412109" lon="17.8261755">
        <ele>34</ele>
        <time>2013-04-29T19:42:26Z</time>
      </trkpt>
      <trkpt lat="59.4411009" lon="17.8262465">
        <ele>33.6</ele>
        <time>2013-04-29T19:42:29Z</time>
      </trkpt>
      <trkpt lat="59.440971" lon="17.8263589">
        <ele>33.2</ele>
        <time>2013-04-29T19:42:32Z</time>
      </trkpt>
      <trkpt lat="59.4408857" lon="17.8264113">
        <ele>33</ele>
        <time>2013-04-29T19:42:34Z</time>
      </trkpt>
      <trkpt lat="59.4407062" lon="17.8265136">
        <ele>32.6</ele>
        <time>2013-04-29T19:42:38Z</time>
      </trkpt>
      <trkpt lat="59.4405186" lon="17.8266181">
        <ele>32.2</ele>
        <time>2013-04-29T19:42:42Z</time>
      </trkpt>
      <trkpt lat="59.4404492" lon="17.8266785">
        <ele>32</ele>
        <time>2013-04-29T19:42:44Z</time>
      </trkpt>
      <trkpt lat="59.4403343" lon="17.8267353">
        <ele>31.8</ele>
        <time>2013-04-29T19:42:47Z</time>
      </trkpt>
      <trkpt lat="59.4402901" lon="17.826752">
        <ele>31.6</ele>
        <time>2013-04-29T19:42:48Z</time>
      </trkpt>
      <trkpt lat="59.4401451" lon="17.826827">
        <ele>31.4</ele>
        <time>2013-04-29T19:42:51Z</time>
      </trkpt>
      <trkpt lat="59.4400769" lon="17.8268389">
        <ele>31.4</ele>
        <time>2013-04-29T19:42:53Z</time>
      </trkpt>
      <trkpt lat="59.4398697" lon="17.8268343">
        <ele>31.4</ele>
        <time>2013-04-29T19:42:57Z</time>
      </trkpt>
      <trkpt lat="59.4398236" lon="17.8268349">
        <ele>31.4</ele>
        <time>2013-04-29T19:42:58Z</time>
      </trkpt>
      <trkpt lat="59.4397827" lon="17.8268532">
        <ele>31.4</ele>
        <time>2013-04-29T19:42:59Z</time>
      </trkpt>
      <trkpt lat="59.4396379" lon="17.8268931">
        <ele>31.4</ele>
        <time>2013-04-29T19:43:02Z</time>
      </trkpt>
      <trkpt lat="59.4394904" lon="17.8269016">
        <ele>31.6</ele>
        <time>2013-04-29T19:43:05Z</time>
      </trkpt>
      <trkpt lat="59.4394203" lon="17.8269071">
        <ele>31.4</ele>
        <time>2013-04-29T19:43:07Z</time>
      </trkpt>
      <trkpt lat="59.4392054" lon="17.8269029">
        <ele>31.2</ele>
        <time>2013-04-29T19:43:12Z</time>
      </trkpt>
      <trkpt lat="59.439168" lon="17.8268985">
        <ele>31.2</ele>
        <time>2013-04-29T19:43:13Z</time>
      </trkpt>
      <trkpt lat="59.4390369" lon="17.8268727">
        <ele>31</ele>
        <time>2013-04-29T19:43:16Z</time>
      </trkpt>
      <trkpt lat="59.4389498" lon="17.8268298">
        <ele>30.8</ele>
        <time>2013-04-29T19:43:18Z</time>
      </trkpt>
      <trkpt lat="59.4387757" lon="17.8267758">
        <ele>30.6</ele>
        <time>2013-04-29T19:43:22Z</time>
      </trkpt>
      <trkpt lat="59.4387343" lon="17.8267619">
        <ele>30.6</ele>
        <time>2013-04-29T19:43:23Z</time>
      </trkpt>
      <trkpt lat="59.4386465" lon="17.8267293">
        <ele>30.4</ele>
        <time>2013-04-29T19:43:25Z</time>
      </trkpt>
      <trkpt lat="59.4385958" lon="17.8267698">
        <ele>30.4</ele>
        <time>2013-04-29T19:43:27Z</time>
      </trkpt>
      <trkpt lat="59.4385328" lon="17.8269488">
        <ele>30.2</ele>
        <time>2013-04-29T19:43:30Z</time>
      </trkpt>
      <trkpt lat="59.4384724" lon="17.827213">
        <ele>30</ele>
        <time>2013-04-29T19:43:34Z</time>
      </trkpt>
      <trkpt lat="59.438388" lon="17.827545">
        <ele>29.6</ele>
        <time>2013-04-29T19:43:39Z</time>
      </trkpt>
      <trkpt lat="59.4383236" lon="17.827778">
        <ele>29.4</ele>
        <time>2013-04-29T19:43:42Z</time>
      </trkpt>
      <trkpt lat="59.4383035" lon="17.8278392">
        <ele>29.4</ele>
        <time>2013-04-29T19:43:43Z</time>
      </trkpt>
      <trkpt lat="59.4381668" lon="17.8280907">
        <ele>29.2</ele>
        <time>2013-04-29T19:43:48Z</time>
      </trkpt>
      <trkpt lat="59.4381213" lon="17.8280636">
        <ele>29.2</ele>
        <time>2013-04-29T19:43:49Z</time>
      </trkpt>
      <trkpt lat="59.4380579" lon="17.8280397">
        <ele>29.2</ele>
        <time>2013-04-29T19:43:51Z</time>
      </trkpt>
      <trkpt lat="59.437871" lon="17.8279289">
        <ele>29</ele>
        <time>2013-04-29T19:43:56Z</time>
      </trkpt>
      <trkpt lat="59.4376568" lon="17.8278443">
        <ele>29.2</ele>
        <time>2013-04-29T19:44:01Z</time>
      </trkpt>
      <trkpt lat="59.4375056" lon="17.8277641">
        <ele>29</ele>
        <time>2013-04-29T19:44:05Z</time>
      </trkpt>
      <trkpt lat="59.4374354" lon="17.827739">
        <ele>29</ele>
        <time>2013-04-29T19:44:07Z</time>
      </trkpt>
      <trkpt lat="59.437354" lon="17.8276773">
        <ele>29</ele>
        <time>2013-04-29T19:44:09Z</time>
      </trkpt>
      <trkpt lat="59.4372844" lon="17.8276286">
        <ele>29</ele>
        <time>2013-04-29T19:44:11Z</time>
      </trkpt>
      <trkpt lat="59.4371589" lon="17.8275205">
        <ele>29</ele>
        <time>2013-04-29T19:44:15Z</time>
      </trkpt>
      <trkpt lat="59.4369543" lon="17.8274497">
        <ele>29</ele>
        <time>2013-04-29T19:44:20Z</time>
      </trkpt>
      <trkpt lat="59.4368066" lon="17.8274725">
        <ele>29</ele>
        <time>2013-04-29T19:44:23Z</time>
      </trkpt>
      <trkpt lat="59.4367599" lon="17.8274804">
        <ele>28.8</ele>
        <time>2013-04-29T19:44:24Z</time>
      </trkpt>
      <trkpt lat="59.4365762" lon="17.8276051">
        <ele>28.8</ele>
        <time>2013-04-29T19:44:28Z</time>
      </trkpt>
      <trkpt lat="59.4365304" lon="17.8276515">
        <ele>28.8</ele>
        <time>2013-04-29T19:44:29Z</time>
      </trkpt>
      <trkpt lat="59.4363711" lon="17.8278455">
        <ele>28.8</ele>
        <time>2013-04-29T19:44:33Z</time>
      </trkpt>
      <trkpt lat="59.4363372" lon="17.8278755">
        <ele>28.8</ele>
        <time>2013-04-29T19:44:34Z</time>
      </trkpt>
      <trkpt lat="59.4362069" lon="17.8279998">
        <ele>28.6</ele>
        <time>2013-04-29T19:44:37Z</time>
      </trkpt>
      <trkpt lat="59.4361694" lon="17.8280563">
        <ele>28.6</ele>
        <time>2013-04-29T19:44:38Z</time>
      </trkpt>
      <trkpt lat="59.4361191" lon="17.8282849">
        <ele>28.6</ele>
        <time>2013-04-29T19:44:41Z</time>
      </trkpt>
      <trkpt lat="59.4361441" lon="17.8286616">
        <ele>28.6</ele>
        <time>2013-04-29T19:44:45Z</time>
      </trkpt>
      <trkpt lat="59.4362256" lon="17.8290462">
        <ele>28.4</ele>
        <time>2013-04-29T19:44:49Z</time>
      </trkpt>
      <trkpt lat="59.4362362" lon="17.8291508">
        <ele>28.4</ele>
        <time>2013-04-29T19:44:50Z</time>
      </trkpt>
      <trkpt lat="59.4362848" lon="17.8294724">
        <ele>27.8</ele>
        <time>2013-04-29T19:44:54Z</time>
      </trkpt>
      <trkpt lat="59.4362969" lon="17.8296975">
        <ele>27.4</ele>
        <time>2013-04-29T19:44:58Z</time>
      </trkpt>
      <trkpt lat="59.4362957" lon="17.8297538">
        <ele>27.2</ele>
        <time>2013-04-29T19:44:59Z</time>
      </trkpt>
      <trkpt lat="59.4363014" lon="17.8299477">
        <ele>26.8</ele>
        <time>2013-04-29T19:45:03Z</time>
      </trkpt>
      <trkpt lat="59.4363173" lon="17.8301789">
        <ele>26</ele>
        <time>2013-04-29T19:45:08Z</time>
      </trkpt>
      <trkpt lat="59.4363314" lon="17.8303518">
        <ele>25.6</ele>
        <time>2013-04-29T19:45:12Z</time>
      </trkpt>
      <trkpt lat="59.436404" lon="17.8304843">
        <ele>25.2</ele>
        <time>2013-04-29T19:45:17Z</time>
      </trkpt>
      <trkpt lat="59.4364534" lon="17.8304775">
        <ele>25</ele>
        <time>2013-04-29T19:45:19Z</time>
      </trkpt>
      <trkpt lat="59.4364961" lon="17.830429">
        <ele>25</ele>
        <time>2013-04-29T19:45:21Z</time>
      </trkpt>
      <trkpt lat="59.4366256" lon="17.8303143">
        <ele>24.8</ele>
        <time>2013-04-29T19:45:25Z</time>
      </trkpt>
      <trkpt lat="59.4368113" lon="17.8301589">
        <ele>24.8</ele>
        <time>2013-04-29T19:45:30Z</time>
      </trkpt>
      <trkpt lat="59.4369436" lon="17.8300416">
        <ele>25</ele>
        <time>2013-04-29T19:45:34Z</time>
      </trkpt>
      <trkpt lat="59.437083" lon="17.8299111">
        <ele>25</ele>
        <time>2013-04-29T19:45:38Z</time>
      </trkpt>
      <trkpt lat="59.4373793" lon="17.8296806">
        <ele>25</ele>
        <time>2013-04-29T19:45:46Z</time>
      </trkpt>
      <trkpt lat="59.4374647" lon="17.829543">
        <ele>25</ele>
        <time>2013-04-29T19:45:49Z</time>
      </trkpt>
      <trkpt lat="59.4375047" lon="17.8294128">
        <ele>25</ele>
        <time>2013-04-29T19:45:51Z</time>
      </trkpt>
      <trkpt lat="59.4375482" lon="17.8290541">
        <ele>24.8</ele>
        <time>2013-04-29T19:45:55Z</time>
      </trkpt>
      <trkpt lat="59.4376304" lon="17.8284964">
        <ele>24.8</ele>
        <time>2013-04-29T19:46:01Z</time>
      </trkpt>
      <trkpt lat="59.4376933" lon="17.8280699">
        <ele>24.6</ele>
        <time>2013-04-29T19:46:06Z</time>
      </trkpt>
      <trkpt lat="59.4378013" lon="17.8278713">
        <ele>24.4</ele>
        <time>2013-04-29T19:46:10Z</time>
      </trkpt>
      <trkpt lat="59.437956" lon="17.8279663">
        <ele>24.4</ele>
        <time>2013-04-29T19:46:14Z</time>
      </trkpt>
      <trkpt lat="59.4381193" lon="17.8280521">
        <ele>24.2</ele>
        <time>2013-04-29T19:46:18Z</time>
      </trkpt>
      <trkpt lat="59.4382044" lon="17.8280737">
        <ele>24</ele>
        <time>2013-04-29T19:46:20Z</time>
      </trkpt>
      <trkpt lat="59.4383271" lon="17.8279419">
        <ele>24</ele>
        <time>2013-04-29T19:46:23Z</time>
      </trkpt>
      <trkpt lat="59.4383665" lon="17.8278772">
        <ele>24</ele>
        <time>2013-04-29T19:46:24Z</time>
      </trkpt>
      <trkpt lat="59.4384248" lon="17.8277561">
        <ele>24</ele>
        <time>2013-04-29T19:46:26Z</time>
      </trkpt>
      <trkpt lat="59.4384413" lon="17.8276061">
        <ele>24</ele>
        <time>2013-04-29T19:46:28Z</time>
      </trkpt>
      <trkpt lat="59.4384515" lon="17.8274352">
        <ele>24</ele>
        <time>2013-04-29T19:46:30Z</time>
      </trkpt>
      <trkpt lat="59.438483" lon="17.8272174">
        <ele>23.8</ele>
        <time>2013-04-29T19:46:33Z</time>
      </trkpt>
      <trkpt lat="59.4385634" lon="17.8268643">
        <ele>23.8</ele>
        <time>2013-04-29T19:46:37Z</time>
      </trkpt>
      <trkpt lat="59.438629" lon="17.8267286">
        <ele>23.8</ele>
        <time>2013-04-29T19:46:39Z</time>
      </trkpt>
      <trkpt lat="59.4387698" lon="17.8267153">
        <ele>23.8</ele>
        <time>2013-04-29T19:46:42Z</time>
      </trkpt>
      <trkpt lat="59.4388511" lon="17.8267173">
        <ele>23.8</ele>
        <time>2013-04-29T19:46:44Z</time>
      </trkpt>
      <trkpt lat="59.4389904" lon="17.8267176">
        <ele>24</ele>
        <time>2013-04-29T19:46:47Z</time>
      </trkpt>
      <trkpt lat="59.4392303" lon="17.8267364">
        <ele>24.2</ele>
        <time>2013-04-29T19:46:52Z</time>
      </trkpt>
      <trkpt lat="59.4392809" lon="17.8267602">
        <ele>24.2</ele>
        <time>2013-04-29T19:46:53Z</time>
      </trkpt>
      <trkpt lat="59.4394435" lon="17.8267611">
        <ele>24.2</ele>
        <time>2013-04-29T19:46:56Z</time>
      </trkpt>
      <trkpt lat="59.4396258" lon="17.8267675">
        <ele>24.2</ele>
        <time>2013-04-29T19:47:00Z</time>
      </trkpt>
      <trkpt lat="59.4398166" lon="17.8267442">
        <ele>24</ele>
        <time>2013-04-29T19:47:04Z</time>
      </trkpt>
      <trkpt lat="59.4400636" lon="17.8267166">
        <ele>24</ele>
        <time>2013-04-29T19:47:09Z</time>
      </trkpt>
      <trkpt lat="59.4401053" lon="17.8266957">
        <ele>24</ele>
        <time>2013-04-29T19:47:10Z</time>
      </trkpt>
      <trkpt lat="59.4403153" lon="17.8266007">
        <ele>24</ele>
        <time>2013-04-29T19:47:14Z</time>
      </trkpt>
      <trkpt lat="59.4404649" lon="17.8265532">
        <ele>23.8</ele>
        <time>2013-04-29T19:47:17Z</time>
      </trkpt>
      <trkpt lat="59.4405769" lon="17.826514">
        <ele>23.8</ele>
        <time>2013-04-29T19:47:19Z</time>
      </trkpt>
      <trkpt lat="59.4408078" lon="17.8263717">
        <ele>23.8</ele>
        <time>2013-04-29T19:47:24Z</time>
      </trkpt>
      <trkpt lat="59.4408446" lon="17.8263262">
        <ele>23.8</ele>
        <time>2013-04-29T19:47:25Z</time>
      </trkpt>
      <trkpt lat="59.4409854" lon="17.8262373">
        <ele>23.8</ele>
        <time>2013-04-29T19:47:28Z</time>
      </trkpt>
      <trkpt lat="59.4411656" lon="17.8261337">
        <ele>23.6</ele>
        <time>2013-04-29T19:47:32Z</time>
      </trkpt>
      <trkpt lat="59.4412046" lon="17.8261191">
        <ele>23.6</ele>
        <time>2013-04-29T19:47:33Z</time>
      </trkpt>
      <trkpt lat="59.4412407" lon="17.8260861">
        <ele>23.6</ele>
        <time>2013-04-29T19:47:34Z</time>
      </trkpt>
      <trkpt lat="59.4413914" lon="17.8260053">
        <ele>23.6</ele>
        <time>2013-04-29T19:47:37Z</time>
      </trkpt>
      <trkpt lat="59.4414344" lon="17.8259943">
        <ele>23.6</ele>
        <time>2013-04-29T19:47:38Z</time>
      </trkpt>
      <trkpt lat="59.4415774" lon="17.8258998">
        <ele>23.4</ele>
        <time>2013-04-29T19:47:41Z</time>
      </trkpt>
      <trkpt lat="59.4416206" lon="17.825872">
        <ele>23.4</ele>
        <time>2013-04-29T19:47:42Z</time>
      </trkpt>
      <trkpt lat="59.4418673" lon="17.8257464">
        <ele>23.2</ele>
        <time>2013-04-29T19:47:47Z</time>
      </trkpt>
      <trkpt lat="59.4421006" lon="17.8256326">
        <ele>23</ele>
        <time>2013-04-29T19:47:52Z</time>
      </trkpt>
      <trkpt lat="59.4423021" lon="17.8255823">
        <ele>22.8</ele>
        <time>2013-04-29T19:47:56Z</time>
      </trkpt>
      <trkpt lat="59.4424708" lon="17.8254896">
        <ele>22.6</ele>
        <time>2013-04-29T19:48:00Z</time>
      </trkpt>
      <trkpt lat="59.4425153" lon="17.8254841">
        <ele>22.4</ele>
        <time>2013-04-29T19:48:01Z</time>
      </trkpt>
      <trkpt lat="59.4426056" lon="17.8254222">
        <ele>22.6</ele>
        <time>2013-04-29T19:48:03Z</time>
      </trkpt>
      <trkpt lat="59.4427318" lon="17.8254035">
        <ele>22.6</ele>
        <time>2013-04-29T19:48:06Z</time>
      </trkpt>
      <trkpt lat="59.4427792" lon="17.8253968">
        <ele>22.4</ele>
        <time>2013-04-29T19:48:07Z</time>
      </trkpt>
      <trkpt lat="59.4429625" lon="17.8253766">
        <ele>22.4</ele>
        <time>2013-04-29T19:48:11Z</time>
      </trkpt>
      <trkpt lat="59.4430676" lon="17.8253085">
        <ele>23</ele>
        <time>2013-04-29T19:48:14Z</time>
      </trkpt>
      <trkpt lat="59.4431503" lon="17.825288">
        <ele>23.2</ele>
        <time>2013-04-29T19:48:16Z</time>
      </trkpt>
      <trkpt lat="59.4432019" lon="17.8252834">
        <ele>23.4</ele>
        <time>2013-04-29T19:48:17Z</time>
      </trkpt>
      <trkpt lat="59.4433845" lon="17.8252983">
        <ele>23.6</ele>
        <time>2013-04-29T19:48:21Z</time>
      </trkpt>
      <trkpt lat="59.4434223" lon="17.8252891">
        <ele>23.8</ele>
        <time>2013-04-29T19:48:22Z</time>
      </trkpt>
      <trkpt lat="59.4435893" lon="17.8252902">
        <ele>24.4</ele>
        <time>2013-04-29T19:48:26Z</time>
      </trkpt>
      <trkpt lat="59.4437598" lon="17.8252898">
        <ele>24.8</ele>
        <time>2013-04-29T19:48:30Z</time>
      </trkpt>
      <trkpt lat="59.4437981" lon="17.8252728">
        <ele>24.8</ele>
        <time>2013-04-29T19:48:31Z</time>
      </trkpt>
      <trkpt lat="59.4439693" lon="17.8253128">
        <ele>25</ele>
        <time>2013-04-29T19:48:34Z</time>
      </trkpt>
      <trkpt lat="59.4440359" lon="17.8253161">
        <ele>25</ele>
        <time>2013-04-29T19:48:35Z</time>
      </trkpt>
      <trkpt lat="59.4441939" lon="17.8253393">
        <ele>25</ele>
        <time>2013-04-29T19:48:39Z</time>
      </trkpt>
      <trkpt lat="59.4443824" lon="17.8253486">
        <ele>24.8</ele>
        <time>2013-04-29T19:48:43Z</time>
      </trkpt>
      <trkpt lat="59.4444725" lon="17.8253526">
        <ele>24.8</ele>
        <time>2013-04-29T19:48:45Z</time>
      </trkpt>
      <trkpt lat="59.4446682" lon="17.8253903">
        <ele>24.8</ele>
        <time>2013-04-29T19:48:49Z</time>
      </trkpt>
      <trkpt lat="59.4448388" lon="17.8254838">
        <ele>24.6</ele>
        <time>2013-04-29T19:48:52Z</time>
      </trkpt>
      <trkpt lat="59.4448877" lon="17.8255005">
        <ele>24.6</ele>
        <time>2013-04-29T19:48:53Z</time>
      </trkpt>
      <trkpt lat="59.4450826" lon="17.8255175">
        <ele>24.4</ele>
        <time>2013-04-29T19:48:57Z</time>
      </trkpt>
      <trkpt lat="59.4453196" lon="17.8255469">
        <ele>24.4</ele>
        <time>2013-04-29T19:49:02Z</time>
      </trkpt>
      <trkpt lat="59.4453684" lon="17.8255683">
        <ele>24.4</ele>
        <time>2013-04-29T19:49:03Z</time>
      </trkpt>
      <trkpt lat="59.4455395" lon="17.8256056">
        <ele>24.2</ele>
        <time>2013-04-29T19:49:07Z</time>
      </trkpt>
      <trkpt lat="59.445564" lon="17.8256267">
        <ele>24.2</ele>
        <time>2013-04-29T19:49:08Z</time>
      </trkpt>
      <trkpt lat="59.4456831" lon="17.8256392">
        <ele>24.2</ele>
        <time>2013-04-29T19:49:11Z</time>
      </trkpt>
      <trkpt lat="59.4457349" lon="17.8256403">
        <ele>24.2</ele>
        <time>2013-04-29T19:49:12Z</time>
      </trkpt>
      <trkpt lat="59.4458747" lon="17.8256152">
        <ele>24.2</ele>
        <time>2013-04-29T19:49:15Z</time>
      </trkpt>
      <trkpt lat="59.446018" lon="17.8256088">
        <ele>24.2</ele>
        <time>2013-04-29T19:49:18Z</time>
      </trkpt>
      <trkpt lat="59.446067" lon="17.8256061">
        <ele>24.4</ele>
        <time>2013-04-29T19:49:19Z</time>
      </trkpt>
      <trkpt lat="59.4462928" lon="17.8255909">
        <ele>24.6</ele>
        <time>2013-04-29T19:49:24Z</time>
      </trkpt>
      <trkpt lat="59.4463348" lon="17.8255761">
        <ele>24.6</ele>
        <time>2013-04-29T19:49:25Z</time>
      </trkpt>
      <trkpt lat="59.4465142" lon="17.8255389">
        <ele>24.4</ele>
        <time>2013-04-29T19:49:28Z</time>
      </trkpt>
      <trkpt lat="59.4465685" lon="17.8255449">
        <ele>24.4</ele>
        <time>2013-04-29T19:49:29Z</time>
      </trkpt>
      <trkpt lat="59.4467169" lon="17.8255196">
        <ele>24.4</ele>
        <time>2013-04-29T19:49:32Z</time>
      </trkpt>
      <trkpt lat="59.4467749" lon="17.8255162">
        <ele>24.4</ele>
        <time>2013-04-29T19:49:33Z</time>
      </trkpt>
      <trkpt lat="59.4469828" lon="17.825454">
        <ele>24.4</ele>
        <time>2013-04-29T19:49:37Z</time>
      </trkpt>
      <trkpt lat="59.4470371" lon="17.8254416">
        <ele>24.4</ele>
        <time>2013-04-29T19:49:38Z</time>
      </trkpt>
      <trkpt lat="59.4471426" lon="17.8253968">
        <ele>24.6</ele>
        <time>2013-04-29T19:49:40Z</time>
      </trkpt>
      <trkpt lat="59.4472946" lon="17.8252997">
        <ele>24.6</ele>
        <time>2013-04-29T19:49:43Z</time>
      </trkpt>
      <trkpt lat="59.44739" lon="17.825236">
        <ele>24.6</ele>
        <time>2013-04-29T19:49:45Z</time>
      </trkpt>
      <trkpt lat="59.4474756" lon="17.8251756">
        <ele>24.6</ele>
        <time>2013-04-29T19:49:47Z</time>
      </trkpt>
      <trkpt lat="59.4475279" lon="17.8251524">
        <ele>24.6</ele>
        <time>2013-04-29T19:49:48Z</time>
      </trkpt>
      <trkpt lat="59.4476204" lon="17.8250876">
        <ele>24.8</ele>
        <time>2013-04-29T19:49:50Z</time>
      </trkpt>
      <trkpt lat="59.4477588" lon="17.8249844">
        <ele>24.6</ele>
        <time>2013-04-29T19:49:53Z</time>
      </trkpt>
      <trkpt lat="59.448001" lon="17.8248089">
        <ele>24.6</ele>
        <time>2013-04-29T19:49:58Z</time>
      </trkpt>
      <trkpt lat="59.44808" lon="17.824738">
        <ele>24.6</ele>
        <time>2013-04-29T19:50:00Z</time>
      </trkpt>
      <trkpt lat="59.4481964" lon="17.8246344">
        <ele>24.6</ele>
        <time>2013-04-29T19:50:03Z</time>
      </trkpt>
      <trkpt lat="59.4482733" lon="17.8245834">
        <ele>24.4</ele>
        <time>2013-04-29T19:50:05Z</time>
      </trkpt>
      <trkpt lat="59.4483591" lon="17.8245279">
        <ele>24.4</ele>
        <time>2013-04-29T19:50:07Z</time>
      </trkpt>
      <trkpt lat="59.4485138" lon="17.8244565">
        <ele>24.4</ele>
        <time>2013-04-29T19:50:11Z</time>
      </trkpt>
      <trkpt lat="59.4485431" lon="17.8244378">
        <ele>24.4</ele>
        <time>2013-04-29T19:50:12Z</time>
      </trkpt>
      <trkpt lat="59.4486544" lon="17.8243202">
        <ele>24.2</ele>
        <time>2013-04-29T19:50:17Z</time>
      </trkpt>
      <trkpt lat="59.4487197" lon="17.8240618">
        <ele>24.4</ele>
        <time>2013-04-29T19:50:21Z</time>
      </trkpt>
      <trkpt lat="59.448704" lon="17.8237108">
        <ele>24.4</ele>
        <time>2013-04-29T19:50:25Z</time>
      </trkpt>
      <trkpt lat="59.4486343" lon="17.8233593">
        <ele>24.4</ele>
        <time>2013-04-29T19:50:29Z</time>
      </trkpt>
      <trkpt lat="59.4486145" lon="17.8230984">
        <ele>24.4</ele>
        <time>2013-04-29T19:50:32Z</time>
      </trkpt>
      <trkpt lat="59.4486161" lon="17.8230026">
        <ele>24.4</ele>
        <time>2013-04-29T19:50:33Z</time>
      </trkpt>
      <trkpt lat="59.4486196" lon="17.8228069">
        <ele>24.4</ele>
        <time>2013-04-29T19:50:35Z</time>
      </trkpt>
      <trkpt lat="59.4486007" lon="17.8225623">
        <ele>24.4</ele>
        <time>2013-04-29T19:50:38Z</time>
      </trkpt>
      <trkpt lat="59.4486046" lon="17.8222772">
        <ele>24.4</ele>
        <time>2013-04-29T19:50:41Z</time>
      </trkpt>
      <trkpt lat="59.4485974" lon="17.8222043">
        <ele>24.4</ele>
        <time>2013-04-29T19:50:42Z</time>
      </trkpt>
      <trkpt lat="59.4485728" lon="17.8220323">
        <ele>24.4</ele>
        <time>2013-04-29T19:50:44Z</time>
      </trkpt>
      <trkpt lat="59.4485752" lon="17.8217547">
        <ele>24.4</ele>
        <time>2013-04-29T19:50:47Z</time>
      </trkpt>
      <trkpt lat="59.4485788" lon="17.8215578">
        <ele>24.2</ele>
        <time>2013-04-29T19:50:49Z</time>
      </trkpt>
      <trkpt lat="59.448588" lon="17.8213603">
        <ele>24.2</ele>
        <time>2013-04-29T19:50:51Z</time>
      </trkpt>
      <trkpt lat="59.448592" lon="17.8211881">
        <ele>24</ele>
        <time>2013-04-29T19:50:53Z</time>
      </trkpt>
      <trkpt lat="59.4485896" lon="17.8209911">
        <ele>24</ele>
        <time>2013-04-29T19:50:55Z</time>
      </trkpt>
      <trkpt lat="59.4485991" lon="17.820891">
        <ele>24</ele>
        <time>2013-04-29T19:50:56Z</time>
      </trkpt>
      <trkpt lat="59.4486351" lon="17.8205961">
        <ele>23.8</ele>
        <time>2013-04-29T19:50:59Z</time>
      </trkpt>
      <trkpt lat="59.4486541" lon="17.8202421">
        <ele>23.4</ele>
        <time>2013-04-29T19:51:03Z</time>
      </trkpt>
      <trkpt lat="59.4486504" lon="17.820165">
        <ele>23.4</ele>
        <time>2013-04-29T19:51:04Z</time>
      </trkpt>
      <trkpt lat="59.4486696" lon="17.8199738">
        <ele>23.2</ele>
        <time>2013-04-29T19:51:06Z</time>
      </trkpt>
      <trkpt lat="59.4486818" lon="17.8197851">
        <ele>23.2</ele>
        <time>2013-04-29T19:51:08Z</time>
      </trkpt>
      <trkpt lat="59.4486992" lon="17.8196677">
        <ele>23</ele>
        <time>2013-04-29T19:51:09Z</time>
      </trkpt>
      <trkpt lat="59.4487277" lon="17.8193918">
        <ele>22.8</ele>
        <time>2013-04-29T19:51:12Z</time>
      </trkpt>
      <trkpt lat="59.4487738" lon="17.8189906">
        <ele>22.4</ele>
        <time>2013-04-29T19:51:16Z</time>
      </trkpt>
      <trkpt lat="59.4488015" lon="17.81871">
        <ele>22.2</ele>
        <time>2013-04-29T19:51:19Z</time>
      </trkpt>
      <trkpt lat="59.4488483" lon="17.8184016">
        <ele>22</ele>
        <time>2013-04-29T19:51:22Z</time>
      </trkpt>
      <trkpt lat="59.4489513" lon="17.8178546">
        <ele>21.4</ele>
        <time>2013-04-29T19:51:27Z</time>
      </trkpt>
      <trkpt lat="59.4489948" lon="17.8176421">
        <ele>21.4</ele>
        <time>2013-04-29T19:51:29Z</time>
      </trkpt>
      <trkpt lat="59.4490349" lon="17.8174483">
        <ele>21.2</ele>
        <time>2013-04-29T19:51:31Z</time>
      </trkpt>
      <trkpt lat="59.4491471" lon="17.8169764">
        <ele>20.8</ele>
        <time>2013-04-29T19:51:36Z</time>
      </trkpt>
      <trkpt lat="59.4492406" lon="17.8164945">
        <ele>20.2</ele>
        <time>2013-04-29T19:51:41Z</time>
      </trkpt>
      <trkpt lat="59.4492863" lon="17.8162985">
        <ele>20.2</ele>
        <time>2013-04-29T19:51:43Z</time>
      </trkpt>
      <trkpt lat="59.449376" lon="17.8161666">
        <ele>20</ele>
        <time>2013-04-29T19:51:45Z</time>
      </trkpt>
      <trkpt lat="59.4495396" lon="17.8162219">
        <ele>19.8</ele>
        <time>2013-04-29T19:51:48Z</time>
      </trkpt>
      <trkpt lat="59.449579" lon="17.8162779">
        <ele>19.8</ele>
        <time>2013-04-29T19:51:49Z</time>
      </trkpt>
      <trkpt lat="59.4497176" lon="17.8164036">
        <ele>19.8</ele>
        <time>2013-04-29T19:51:52Z</time>
      </trkpt>
      <trkpt lat="59.4497763" lon="17.8164211">
        <ele>19.8</ele>
        <time>2013-04-29T19:51:53Z</time>
      </trkpt>
      <trkpt lat="59.4498683" lon="17.8164008">
        <ele>19.6</ele>
        <time>2013-04-29T19:51:55Z</time>
      </trkpt>
      <trkpt lat="59.4499008" lon="17.8163622">
        <ele>19.6</ele>
        <time>2013-04-29T19:51:56Z</time>
      </trkpt>
      <trkpt lat="59.4500214" lon="17.8161456">
        <ele>19.6</ele>
        <time>2013-04-29T19:51:59Z</time>
      </trkpt>
      <trkpt lat="59.4500904" lon="17.8159696">
        <ele>19.6</ele>
        <time>2013-04-29T19:52:01Z</time>
      </trkpt>
      <trkpt lat="59.4501545" lon="17.8158167">
        <ele>19.6</ele>
        <time>2013-04-29T19:52:03Z</time>
      </trkpt>
      <trkpt lat="59.4502567" lon="17.8155454">
        <ele>19.4</ele>
        <time>2013-04-29T19:52:06Z</time>
      </trkpt>
      <trkpt lat="59.4502992" lon="17.8154575">
        <ele>19.4</ele>
        <time>2013-04-29T19:52:07Z</time>
      </trkpt>
      <trkpt lat="59.4504192" lon="17.815206">
        <ele>19.2</ele>
        <time>2013-04-29T19:52:10Z</time>
      </trkpt>
      <trkpt lat="59.4505332" lon="17.8149496">
        <ele>19</ele>
        <time>2013-04-29T19:52:13Z</time>
      </trkpt>
      <trkpt lat="59.450696" lon="17.8145945">
        <ele>18.6</ele>
        <time>2013-04-29T19:52:17Z</time>
      </trkpt>
      <trkpt lat="59.45078" lon="17.8143995">
        <ele>18.4</ele>
        <time>2013-04-29T19:52:19Z</time>
      </trkpt>
      <trkpt lat="59.4508627" lon="17.8142239">
        <ele>18.2</ele>
        <time>2013-04-29T19:52:21Z</time>
      </trkpt>
      <trkpt lat="59.4509026" lon="17.8141352">
        <ele>18.2</ele>
        <time>2013-04-29T19:52:22Z</time>
      </trkpt>
      <trkpt lat="59.4510735" lon="17.8137968">
        <ele>17.8</ele>
        <time>2013-04-29T19:52:26Z</time>
      </trkpt>
      <trkpt lat="59.4511152" lon="17.8137273">
        <ele>17.6</ele>
        <time>2013-04-29T19:52:27Z</time>
      </trkpt>
      <trkpt lat="59.4513444" lon="17.8132859">
        <ele>17</ele>
        <time>2013-04-29T19:52:33Z</time>
      </trkpt>
      <trkpt lat="59.4514222" lon="17.8131769">
        <ele>16.6</ele>
        <time>2013-04-29T19:52:35Z</time>
      </trkpt>
      <trkpt lat="59.4515009" lon="17.8130606">
        <ele>16.6</ele>
        <time>2013-04-29T19:52:37Z</time>
      </trkpt>
      <trkpt lat="59.45169" lon="17.8127522">
        <ele>16</ele>
        <time>2013-04-29T19:52:43Z</time>
      </trkpt>
      <trkpt lat="59.4517205" lon="17.8126763">
        <ele>15.8</ele>
        <time>2013-04-29T19:52:44Z</time>
      </trkpt>
      <trkpt lat="59.4517832" lon="17.8125672">
        <ele>15.8</ele>
        <time>2013-04-29T19:52:46Z</time>
      </trkpt>
      <trkpt lat="59.4518457" lon="17.812456">
        <ele>15.6</ele>
        <time>2013-04-29T19:52:48Z</time>
      </trkpt>
      <trkpt lat="59.4519133" lon="17.8123468">
        <ele>15.2</ele>
        <time>2013-04-29T19:52:50Z</time>
      </trkpt>
      <trkpt lat="59.4519825" lon="17.8122043">
        <ele>15</ele>
        <time>2013-04-29T19:52:52Z</time>
      </trkpt>
      <trkpt lat="59.4520127" lon="17.8121419">
        <ele>15</ele>
        <time>2013-04-29T19:52:53Z</time>
      </trkpt>
      <trkpt lat="59.4520745" lon="17.811992">
        <ele>14.8</ele>
        <time>2013-04-29T19:52:55Z</time>
      </trkpt>
      <trkpt lat="59.4521437" lon="17.8118708">
        <ele>14.8</ele>
        <time>2013-04-29T19:52:57Z</time>
      </trkpt>
      <trkpt lat="59.4522478" lon="17.8116523">
        <ele>14.6</ele>
        <time>2013-04-29T19:53:00Z</time>
      </trkpt>
      <trkpt lat="59.4523287" lon="17.8115247">
        <ele>14.4</ele>
        <time>2013-04-29T19:53:02Z</time>
      </trkpt>
      <trkpt lat="59.4524941" lon="17.8112722">
        <ele>14.2</ele>
        <time>2013-04-29T19:53:06Z</time>
      </trkpt>
      <trkpt lat="59.4525276" lon="17.8111983">
        <ele>14</ele>
        <time>2013-04-29T19:53:07Z</time>
      </trkpt>
      <trkpt lat="59.4526771" lon="17.8109226">
        <ele>13.6</ele>
        <time>2013-04-29T19:53:11Z</time>
      </trkpt>
      <trkpt lat="59.4527259" lon="17.8108657">
        <ele>13.4</ele>
        <time>2013-04-29T19:53:12Z</time>
      </trkpt>
      <trkpt lat="59.4528968" lon="17.8105765">
        <ele>13</ele>
        <time>2013-04-29T19:53:17Z</time>
      </trkpt>
      <trkpt lat="59.4529405" lon="17.810514">
        <ele>12.8</ele>
        <time>2013-04-29T19:53:18Z</time>
      </trkpt>
      <trkpt lat="59.453044" lon="17.8103403">
        <ele>12.6</ele>
        <time>2013-04-29T19:53:21Z</time>
      </trkpt>
      <trkpt lat="59.4532682" lon="17.8099401">
        <ele>11.8</ele>
        <time>2013-04-29T19:53:28Z</time>
      </trkpt>
      <trkpt lat="59.4533755" lon="17.8097706">
        <ele>11.6</ele>
        <time>2013-04-29T19:53:31Z</time>
      </trkpt>
      <trkpt lat="59.4534274" lon="17.8096619">
        <ele>11.4</ele>
        <time>2013-04-29T19:53:33Z</time>
      </trkpt>
      <trkpt lat="59.45349" lon="17.8095408">
        <ele>11.4</ele>
        <time>2013-04-29T19:53:35Z</time>
      </trkpt>
      <trkpt lat="59.45356" lon="17.8094052">
        <ele>11.4</ele>
        <time>2013-04-29T19:53:37Z</time>
      </trkpt>
      <trkpt lat="59.4537625" lon="17.8091158">
        <ele>11.2</ele>
        <time>2013-04-29T19:53:42Z</time>
      </trkpt>
      <trkpt lat="59.4537961" lon="17.8090399">
        <ele>11.2</ele>
        <time>2013-04-29T19:53:43Z</time>
      </trkpt>
      <trkpt lat="59.4539593" lon="17.8088452">
        <ele>11.4</ele>
        <time>2013-04-29T19:53:47Z</time>
      </trkpt>
      <trkpt lat="59.4540184" lon="17.8087701">
        <ele>11.2</ele>
        <time>2013-04-29T19:53:49Z</time>
      </trkpt>
      <trkpt lat="59.4540707" lon="17.8088117">
        <ele>11.4</ele>
        <time>2013-04-29T19:53:51Z</time>
      </trkpt>
      <trkpt lat="59.4541081" lon="17.8088836">
        <ele>11.2</ele>
        <time>2013-04-29T19:53:53Z</time>
      </trkpt>
      <trkpt lat="59.4541609" lon="17.8089295">
        <ele>11.2</ele>
        <time>2013-04-29T19:53:55Z</time>
      </trkpt>
      <trkpt lat="59.4543045" lon="17.8091069">
        <ele>11.2</ele>
        <time>2013-04-29T19:54:00Z</time>
      </trkpt>
      <trkpt lat="59.4544223" lon="17.809326">
        <ele>11.2</ele>
        <time>2013-04-29T19:54:04Z</time>
      </trkpt>
      <trkpt lat="59.4545346" lon="17.8096196">
        <ele>11.2</ele>
        <time>2013-04-29T19:54:08Z</time>
      </trkpt>
      <trkpt lat="59.4545751" lon="17.8096954">
        <ele>11.4</ele>
        <time>2013-04-29T19:54:09Z</time>
      </trkpt>
      <trkpt lat="59.4546764" lon="17.8098973">
        <ele>11.8</ele>
        <time>2013-04-29T19:54:12Z</time>
      </trkpt>
      <trkpt lat="59.4547337" lon="17.8100342">
        <ele>12</ele>
        <time>2013-04-29T19:54:14Z</time>
      </trkpt>
      <trkpt lat="59.4547898" lon="17.81018">
        <ele>12.4</ele>
        <time>2013-04-29T19:54:16Z</time>
      </trkpt>
      <trkpt lat="59.4548704" lon="17.8103946">
        <ele>12.8</ele>
        <time>2013-04-29T19:54:19Z</time>
      </trkpt>
      <trkpt lat="59.4549103" lon="17.8105345">
        <ele>13</ele>
        <time>2013-04-29T19:54:21Z</time>
      </trkpt>
      <trkpt lat="59.4549428" lon="17.8107161">
        <ele>13.2</ele>
        <time>2013-04-29T19:54:23Z</time>
      </trkpt>
      <trkpt lat="59.4549809" lon="17.8108558">
        <ele>13.2</ele>
        <time>2013-04-29T19:54:25Z</time>
      </trkpt>
      <trkpt lat="59.4550021" lon="17.810933">
        <ele>13.4</ele>
        <time>2013-04-29T19:54:26Z</time>
      </trkpt>
      <trkpt lat="59.4550243" lon="17.8110666">
        <ele>13.6</ele>
        <time>2013-04-29T19:54:28Z</time>
      </trkpt>
      <trkpt lat="59.4550591" lon="17.8112326">
        <ele>13.6</ele>
        <time>2013-04-29T19:54:30Z</time>
      </trkpt>
      <trkpt lat="59.4550787" lon="17.8112878">
        <ele>13.8</ele>
        <time>2013-04-29T19:54:31Z</time>
      </trkpt>
      <trkpt lat="59.4551368" lon="17.8115332">
        <ele>14.2</ele>
        <time>2013-04-29T19:54:34Z</time>
      </trkpt>
      <trkpt lat="59.4551579" lon="17.8117313">
        <ele>14.4</ele>
        <time>2013-04-29T19:54:36Z</time>
      </trkpt>
      <trkpt lat="59.4551834" lon="17.8118835">
        <ele>14.6</ele>
        <time>2013-04-29T19:54:38Z</time>
      </trkpt>
      <trkpt lat="59.4551998" lon="17.8119501">
        <ele>14.8</ele>
        <time>2013-04-29T19:54:39Z</time>
      </trkpt>
      <trkpt lat="59.4552166" lon="17.812011">
        <ele>15</ele>
        <time>2013-04-29T19:54:40Z</time>
      </trkpt>
      <trkpt lat="59.4552876" lon="17.8122772">
        <ele>15.6</ele>
        <time>2013-04-29T19:54:43Z</time>
      </trkpt>
      <trkpt lat="59.4553223" lon="17.8124232">
        <ele>15.8</ele>
        <time>2013-04-29T19:54:45Z</time>
      </trkpt>
      <trkpt lat="59.4553947" lon="17.8126972">
        <ele>16.2</ele>
        <time>2013-04-29T19:54:48Z</time>
      </trkpt>
      <trkpt lat="59.45544" lon="17.8128988">
        <ele>16.4</ele>
        <time>2013-04-29T19:54:50Z</time>
      </trkpt>
      <trkpt lat="59.4555107" lon="17.8131891">
        <ele>17</ele>
        <time>2013-04-29T19:54:53Z</time>
      </trkpt>
      <trkpt lat="59.4556284" lon="17.8135527">
        <ele>17.8</ele>
        <time>2013-04-29T19:54:57Z</time>
      </trkpt>
      <trkpt lat="59.4556486" lon="17.8136325">
        <ele>17.8</ele>
        <time>2013-04-29T19:54:58Z</time>
      </trkpt>
      <trkpt lat="59.4556813" lon="17.8138141">
        <ele>18</ele>
        <time>2013-04-29T19:55:00Z</time>
      </trkpt>
      <trkpt lat="59.4557015" lon="17.8140588">
        <ele>18</ele>
        <time>2013-04-29T19:55:02Z</time>
      </trkpt>
      <trkpt lat="59.4556907" lon="17.814451">
        <ele>18.2</ele>
        <time>2013-04-29T19:55:06Z</time>
      </trkpt>
      <trkpt lat="59.4556709" lon="17.814544">
        <ele>18.4</ele>
        <time>2013-04-29T19:55:07Z</time>
      </trkpt>
      <trkpt lat="59.4555584" lon="17.8147806">
        <ele>18.4</ele>
        <time>2013-04-29T19:55:10Z</time>
      </trkpt>
      <trkpt lat="59.4555282" lon="17.8148257">
        <ele>18.4</ele>
        <time>2013-04-29T19:55:11Z</time>
      </trkpt>
      <trkpt lat="59.4554703" lon="17.8148628">
        <ele>18.4</ele>
        <time>2013-04-29T19:55:12Z</time>
      </trkpt>
      <trkpt lat="59.4554284" lon="17.8149104">
        <ele>18.4</ele>
        <time>2013-04-29T19:55:13Z</time>
      </trkpt>
      <trkpt lat="59.455349" lon="17.8150111">
        <ele>18.2</ele>
        <time>2013-04-29T19:55:15Z</time>
      </trkpt>
      <trkpt lat="59.4552904" lon="17.8151727">
        <ele>18.2</ele>
        <time>2013-04-29T19:55:17Z</time>
      </trkpt>
      <trkpt lat="59.4552878" lon="17.8152591">
        <ele>18.2</ele>
        <time>2013-04-29T19:55:18Z</time>
      </trkpt>
      <trkpt lat="59.4553451" lon="17.8156623">
        <ele>18</ele>
        <time>2013-04-29T19:55:22Z</time>
      </trkpt>
      <trkpt lat="59.4553696" lon="17.8157534">
        <ele>18</ele>
        <time>2013-04-29T19:55:23Z</time>
      </trkpt>
      <trkpt lat="59.455512" lon="17.8162907">
        <ele>17.6</ele>
        <time>2013-04-29T19:55:29Z</time>
      </trkpt>
      <trkpt lat="59.4555725" lon="17.8166253">
        <ele>17.2</ele>
        <time>2013-04-29T19:55:33Z</time>
      </trkpt>
      <trkpt lat="59.4555749" lon="17.8169639">
        <ele>17</ele>
        <time>2013-04-29T19:55:37Z</time>
      </trkpt>
      <trkpt lat="59.4555583" lon="17.8170646">
        <ele>16.8</ele>
        <time>2013-04-29T19:55:38Z</time>
      </trkpt>
      <trkpt lat="59.4555147" lon="17.8173225">
        <ele>16.6</ele>
        <time>2013-04-29T19:55:41Z</time>
      </trkpt>
      <trkpt lat="59.4555113" lon="17.8174026">
        <ele>16.6</ele>
        <time>2013-04-29T19:55:42Z</time>
      </trkpt>
      <trkpt lat="59.4554838" lon="17.8177545">
        <ele>16.4</ele>
        <time>2013-04-29T19:55:48Z</time>
      </trkpt>
      <trkpt lat="59.4554602" lon="17.8179983">
        <ele>16.6</ele>
        <time>2013-04-29T19:55:53Z</time>
      </trkpt>
      <trkpt lat="59.4554511" lon="17.8181604">
        <ele>17</ele>
        <time>2013-04-29T19:55:56Z</time>
      </trkpt>
      <trkpt lat="59.4554797" lon="17.81824">
        <ele>17.2</ele>
        <time>2013-04-29T19:55:58Z</time>
      </trkpt>
      <trkpt lat="59.4555538" lon="17.8183268">
        <ele>17.4</ele>
        <time>2013-04-29T19:56:01Z</time>
      </trkpt>
      <trkpt lat="59.4555844" lon="17.8183267">
        <ele>17.4</ele>
        <time>2013-04-29T19:56:02Z</time>
      </trkpt>
      <trkpt lat="59.4557393" lon="17.8184611">
        <ele>17.4</ele>
        <time>2013-04-29T19:56:06Z</time>
      </trkpt>
      <trkpt lat="59.4558956" lon="17.8186623">
        <ele>17.4</ele>
        <time>2013-04-29T19:56:11Z</time>
      </trkpt>
      <trkpt lat="59.4560376" lon="17.81886">
        <ele>17.2</ele>
        <time>2013-04-29T19:56:15Z</time>
      </trkpt>
      <trkpt lat="59.4560723" lon="17.8188937">
        <ele>17.2</ele>
        <time>2013-04-29T19:56:16Z</time>
      </trkpt>
      <trkpt lat="59.4561972" lon="17.818984">
        <ele>17.2</ele>
        <time>2013-04-29T19:56:19Z</time>
      </trkpt>
      <trkpt lat="59.4563826" lon="17.8191136">
        <ele>17.2</ele>
        <time>2013-04-29T19:56:23Z</time>
      </trkpt>
      <trkpt lat="59.4564318" lon="17.8191463">
        <ele>17.2</ele>
        <time>2013-04-29T19:56:24Z</time>
      </trkpt>
      <trkpt lat="59.4564891" lon="17.8191506">
        <ele>17.2</ele>
        <time>2013-04-29T19:56:25Z</time>
      </trkpt>
      <trkpt lat="59.4565945" lon="17.8192082">
        <ele>17</ele>
        <time>2013-04-29T19:56:27Z</time>
      </trkpt>
      <trkpt lat="59.456697" lon="17.8192093">
        <ele>17.2</ele>
        <time>2013-04-29T19:56:29Z</time>
      </trkpt>
      <trkpt lat="59.4567407" lon="17.8191964">
        <ele>17.2</ele>
        <time>2013-04-29T19:56:30Z</time>
      </trkpt>
      <trkpt lat="59.4567734" lon="17.8191667">
        <ele>17</ele>
        <time>2013-04-29T19:56:31Z</time>
      </trkpt>
      <trkpt lat="59.4569249" lon="17.8190596">
        <ele>17</ele>
        <time>2013-04-29T19:56:34Z</time>
      </trkpt>
      <trkpt lat="59.4569622" lon="17.8190205">
        <ele>17</ele>
        <time>2013-04-29T19:56:35Z</time>
      </trkpt>
      <trkpt lat="59.4572224" lon="17.8187256">
        <ele>17</ele>
        <time>2013-04-29T19:56:41Z</time>
      </trkpt>
      <trkpt lat="59.4572469" lon="17.8186664">
        <ele>17</ele>
        <time>2013-04-29T19:56:42Z</time>
      </trkpt>
      <trkpt lat="59.4573392" lon="17.8185961">
        <ele>17</ele>
        <time>2013-04-29T19:56:45Z</time>
      </trkpt>
      <trkpt lat="59.4573816" lon="17.8187546">
        <ele>17</ele>
        <time>2013-04-29T19:56:48Z</time>
      </trkpt>
      <trkpt lat="59.457422" lon="17.8190275">
        <ele>17.2</ele>
        <time>2013-04-29T19:56:52Z</time>
      </trkpt>
      <trkpt lat="59.4574227" lon="17.8190976">
        <ele>17.2</ele>
        <time>2013-04-29T19:56:53Z</time>
      </trkpt>
      <trkpt lat="59.4574448" lon="17.8193031">
        <ele>17.4</ele>
        <time>2013-04-29T19:56:56Z</time>
      </trkpt>
      <trkpt lat="59.4574749" lon="17.8196412">
        <ele>18</ele>
        <time>2013-04-29T19:57:02Z</time>
      </trkpt>
      <trkpt lat="59.4575702" lon="17.8196371">
        <ele>18.2</ele>
        <time>2013-04-29T19:57:06Z</time>
      </trkpt>
      <trkpt lat="59.4576939" lon="17.8196723">
        <ele>18.2</ele>
        <time>2013-04-29T19:57:10Z</time>
      </trkpt>
      <trkpt lat="59.4577819" lon="17.8199108">
        <ele>18.4</ele>
        <time>2013-04-29T19:57:14Z</time>
      </trkpt>
      <trkpt lat="59.4578113" lon="17.8199629">
        <ele>18.4</ele>
        <time>2013-04-29T19:57:15Z</time>
      </trkpt>
      <trkpt lat="59.4579589" lon="17.8202796">
        <ele>18.4</ele>
        <time>2013-04-29T19:57:20Z</time>
      </trkpt>
      <trkpt lat="59.4580114" lon="17.8205109">
        <ele>18.2</ele>
        <time>2013-04-29T19:57:23Z</time>
      </trkpt>
      <trkpt lat="59.4580253" lon="17.8206965">
        <ele>18.2</ele>
        <time>2013-04-29T19:57:25Z</time>
      </trkpt>
      <trkpt lat="59.4580384" lon="17.8209206">
        <ele>18</ele>
        <time>2013-04-29T19:57:28Z</time>
      </trkpt>
      <trkpt lat="59.4580335" lon="17.8211905">
        <ele>18</ele>
        <time>2013-04-29T19:57:32Z</time>
      </trkpt>
      <trkpt lat="59.4580952" lon="17.8214759">
        <ele>17.8</ele>
        <time>2013-04-29T19:57:37Z</time>
      </trkpt>
      <trkpt lat="59.4581345" lon="17.8215171">
        <ele>17.8</ele>
        <time>2013-04-29T19:57:38Z</time>
      </trkpt>
      <trkpt lat="59.4583131" lon="17.8216498">
        <ele>17.8</ele>
        <time>2013-04-29T19:57:42Z</time>
      </trkpt>
      <trkpt lat="59.4584464" lon="17.8217179">
        <ele>17.8</ele>
        <time>2013-04-29T19:57:45Z</time>
      </trkpt>
      <trkpt lat="59.4585288" lon="17.8217486">
        <ele>17.8</ele>
        <time>2013-04-29T19:57:47Z</time>
      </trkpt>
      <trkpt lat="59.4586691" lon="17.8217787">
        <ele>18</ele>
        <time>2013-04-29T19:57:51Z</time>
      </trkpt>
      <trkpt lat="59.4587196" lon="17.8217881">
        <ele>18</ele>
        <time>2013-04-29T19:57:52Z</time>
      </trkpt>
      <trkpt lat="59.4588428" lon="17.8218383">
        <ele>18.2</ele>
        <time>2013-04-29T19:57:55Z</time>
      </trkpt>
      <trkpt lat="59.4590001" lon="17.8218437">
        <ele>18.4</ele>
        <time>2013-04-29T19:57:59Z</time>
      </trkpt>
      <trkpt lat="59.4591537" lon="17.821684">
        <ele>18.6</ele>
        <time>2013-04-29T19:58:04Z</time>
      </trkpt>
      <trkpt lat="59.4593465" lon="17.8215595">
        <ele>18.8</ele>
        <time>2013-04-29T19:58:09Z</time>
      </trkpt>
      <trkpt lat="59.4595005" lon="17.821574">
        <ele>19</ele>
        <time>2013-04-29T19:58:13Z</time>
      </trkpt>
      <trkpt lat="59.4596473" lon="17.8216462">
        <ele>19</ele>
        <time>2013-04-29T19:58:17Z</time>
      </trkpt>
      <trkpt lat="59.4598267" lon="17.8217557">
        <ele>19</ele>
        <time>2013-04-29T19:58:22Z</time>
      </trkpt>
      <trkpt lat="59.4599631" lon="17.8218088">
        <ele>19</ele>
        <time>2013-04-29T19:58:26Z</time>
      </trkpt>
      <trkpt lat="59.4601562" lon="17.8218122">
        <ele>19</ele>
        <time>2013-04-29T19:58:32Z</time>
      </trkpt>
      <trkpt lat="59.4602619" lon="17.821798">
        <ele>19</ele>
        <time>2013-04-29T19:58:36Z</time>
      </trkpt>
      <trkpt lat="59.4602739" lon="17.8217726">
        <ele>19.2</ele>
        <time>2013-04-29T19:58:37Z</time>
      </trkpt>
      <trkpt lat="59.4603401" lon="17.8217152">
        <ele>19.4</ele>
        <time>2013-04-29T19:58:39Z</time>
      </trkpt>
      <trkpt lat="59.4604386" lon="17.8216367">
        <ele>20</ele>
        <time>2013-04-29T19:58:43Z</time>
      </trkpt>
      <trkpt lat="59.460512" lon="17.8215926">
        <ele>20.8</ele>
        <time>2013-04-29T19:58:47Z</time>
      </trkpt>
      <trkpt lat="59.4606099" lon="17.8215143">
        <ele>21.8</ele>
        <time>2013-04-29T19:58:51Z</time>
      </trkpt>
      <trkpt lat="59.4606338" lon="17.8214669">
        <ele>22</ele>
        <time>2013-04-29T19:58:52Z</time>
      </trkpt>
      <trkpt lat="59.4606846" lon="17.8213497">
        <ele>22.6</ele>
        <time>2013-04-29T19:58:55Z</time>
      </trkpt>
      <trkpt lat="59.4607063" lon="17.8212053">
        <ele>23.6</ele>
        <time>2013-04-29T19:59:00Z</time>
      </trkpt>
      <trkpt lat="59.4606694" lon="17.8211112">
        <ele>24.2</ele>
        <time>2013-04-29T19:59:03Z</time>
      </trkpt>
      <trkpt lat="59.4606412" lon="17.8210935">
        <ele>24.2</ele>
        <time>2013-04-29T19:59:04Z</time>
      </trkpt>
      <trkpt lat="59.4605029" lon="17.8209319">
        <ele>24.8</ele>
        <time>2013-04-29T19:59:08Z</time>
      </trkpt>
      <trkpt lat="59.4602964" lon="17.8207059">
        <ele>25.4</ele>
        <time>2013-04-29T19:59:13Z</time>
      </trkpt>
      <trkpt lat="59.4601614" lon="17.82057">
        <ele>25.6</ele>
        <time>2013-04-29T19:59:16Z</time>
      </trkpt>
      <trkpt lat="59.4600227" lon="17.8204381">
        <ele>25.8</ele>
        <time>2013-04-29T19:59:19Z</time>
      </trkpt>
      <trkpt lat="59.4597981" lon="17.8201988">
        <ele>25.8</ele>
        <time>2013-04-29T19:59:24Z</time>
      </trkpt>
      <trkpt lat="59.4596517" lon="17.8200534">
        <ele>25.6</ele>
        <time>2013-04-29T19:59:27Z</time>
      </trkpt>
      <trkpt lat="59.4595614" lon="17.8199567">
        <ele>25.6</ele>
        <time>2013-04-29T19:59:29Z</time>
      </trkpt>
      <trkpt lat="59.4593879" lon="17.8197209">
        <ele>25.6</ele>
        <time>2013-04-29T19:59:33Z</time>
      </trkpt>
      <trkpt lat="59.4593395" lon="17.819678">
        <ele>25.4</ele>
        <time>2013-04-29T19:59:34Z</time>
      </trkpt>
      <trkpt lat="59.4591703" lon="17.8194501">
        <ele>25.4</ele>
        <time>2013-04-29T19:59:38Z</time>
      </trkpt>
      <trkpt lat="59.458928" lon="17.8192071">
        <ele>25</ele>
        <time>2013-04-29T19:59:43Z</time>
      </trkpt>
      <trkpt lat="59.458782" lon="17.8190521">
        <ele>25</ele>
        <time>2013-04-29T19:59:46Z</time>
      </trkpt>
      <trkpt lat="59.4587328" lon="17.8190038">
        <ele>25</ele>
        <time>2013-04-29T19:59:47Z</time>
      </trkpt>
      <trkpt lat="59.4585571" lon="17.8188006">
        <ele>24.6</ele>
        <time>2013-04-29T19:59:51Z</time>
      </trkpt>
      <trkpt lat="59.4585028" lon="17.8187417">
        <ele>24.6</ele>
        <time>2013-04-29T19:59:52Z</time>
      </trkpt>
      <trkpt lat="59.4582936" lon="17.8185104">
        <ele>24.2</ele>
        <time>2013-04-29T19:59:57Z</time>
      </trkpt>
      <trkpt lat="59.4581598" lon="17.8183656">
        <ele>24.2</ele>
        <time>2013-04-29T20:00:00Z</time>
      </trkpt>
      <trkpt lat="59.4580727" lon="17.8182509">
        <ele>24</ele>
        <time>2013-04-29T20:00:02Z</time>
      </trkpt>
      <trkpt lat="59.4579439" lon="17.8180608">
        <ele>24</ele>
        <time>2013-04-29T20:00:05Z</time>
      </trkpt>
      <trkpt lat="59.4578595" lon="17.8179353">
        <ele>23.8</ele>
        <time>2013-04-29T20:00:07Z</time>
      </trkpt>
      <trkpt lat="59.4577337" lon="17.8177044">
        <ele>23.6</ele>
        <time>2013-04-29T20:00:10Z</time>
      </trkpt>
      <trkpt lat="59.4576622" lon="17.8175523">
        <ele>23.4</ele>
        <time>2013-04-29T20:00:12Z</time>
      </trkpt>
      <trkpt lat="59.4575735" lon="17.8173342">
        <ele>23.2</ele>
        <time>2013-04-29T20:00:15Z</time>
      </trkpt>
      <trkpt lat="59.4575154" lon="17.8171846">
        <ele>23</ele>
        <time>2013-04-29T20:00:17Z</time>
      </trkpt>
      <trkpt lat="59.4573906" lon="17.8169167">
        <ele>22.8</ele>
        <time>2013-04-29T20:00:21Z</time>
      </trkpt>
      <trkpt lat="59.4572393" lon="17.8166283">
        <ele>22.6</ele>
        <time>2013-04-29T20:00:25Z</time>
      </trkpt>
      <trkpt lat="59.4570985" lon="17.8163363">
        <ele>22.4</ele>
        <time>2013-04-29T20:00:29Z</time>
      </trkpt>
      <trkpt lat="59.4570528" lon="17.8162708">
        <ele>22.2</ele>
        <time>2013-04-29T20:00:30Z</time>
      </trkpt>
      <trkpt lat="59.4569814" lon="17.8161654">
        <ele>22.2</ele>
        <time>2013-04-29T20:00:32Z</time>
      </trkpt>
      <trkpt lat="59.4569072" lon="17.8160401">
        <ele>22</ele>
        <time>2013-04-29T20:00:34Z</time>
      </trkpt>
      <trkpt lat="59.456802" lon="17.8158706">
        <ele>21.8</ele>
        <time>2013-04-29T20:00:37Z</time>
      </trkpt>
      <trkpt lat="59.4567639" lon="17.815797">
        <ele>21.8</ele>
        <time>2013-04-29T20:00:38Z</time>
      </trkpt>
      <trkpt lat="59.4565783" lon="17.8154761">
        <ele>21.6</ele>
        <time>2013-04-29T20:00:43Z</time>
      </trkpt>
      <trkpt lat="59.4565435" lon="17.8154254">
        <ele>21.4</ele>
        <time>2013-04-29T20:00:44Z</time>
      </trkpt>
      <trkpt lat="59.4564996" lon="17.8153797">
        <ele>21.4</ele>
        <time>2013-04-29T20:00:45Z</time>
      </trkpt>
      <trkpt lat="59.4563417" lon="17.8151431">
        <ele>21.2</ele>
        <time>2013-04-29T20:00:49Z</time>
      </trkpt>
      <trkpt lat="59.4562071" lon="17.8148035">
        <ele>20.8</ele>
        <time>2013-04-29T20:00:54Z</time>
      </trkpt>
      <trkpt lat="59.4560564" lon="17.814458">
        <ele>20.4</ele>
        <time>2013-04-29T20:00:59Z</time>
      </trkpt>
      <trkpt lat="59.456021" lon="17.8144036">
        <ele>20.2</ele>
        <time>2013-04-29T20:01:00Z</time>
      </trkpt>
      <trkpt lat="59.4559309" lon="17.8142269">
        <ele>20</ele>
        <time>2013-04-29T20:01:03Z</time>
      </trkpt>
      <trkpt lat="59.4559001" lon="17.8141513">
        <ele>20</ele>
        <time>2013-04-29T20:01:04Z</time>
      </trkpt>
      <trkpt lat="59.4558494" lon="17.8140307">
        <ele>19.8</ele>
        <time>2013-04-29T20:01:06Z</time>
      </trkpt>
      <trkpt lat="59.455803" lon="17.8138992">
        <ele>19.6</ele>
        <time>2013-04-29T20:01:08Z</time>
      </trkpt>
      <trkpt lat="59.4557282" lon="17.8137128">
        <ele>19.4</ele>
        <time>2013-04-29T20:01:11Z</time>
      </trkpt>
      <trkpt lat="59.4557012" lon="17.8136675">
        <ele>19.4</ele>
        <time>2013-04-29T20:01:12Z</time>
      </trkpt>
      <trkpt lat="59.4556758" lon="17.8135988">
        <ele>19.4</ele>
        <time>2013-04-29T20:01:13Z</time>
      </trkpt>
      <trkpt lat="59.455554" lon="17.8133644">
        <ele>19</ele>
        <time>2013-04-29T20:01:17Z</time>
      </trkpt>
      <trkpt lat="59.4555261" lon="17.8133182">
        <ele>19</ele>
        <time>2013-04-29T20:01:18Z</time>
      </trkpt>
      <trkpt lat="59.4555086" lon="17.8132561">
        <ele>19</ele>
        <time>2013-04-29T20:01:19Z</time>
      </trkpt>
      <trkpt lat="59.4554371" lon="17.8130492">
        <ele>18.8</ele>
        <time>2013-04-29T20:01:22Z</time>
      </trkpt>
      <trkpt lat="59.4553733" lon="17.8127585">
        <ele>18.6</ele>
        <time>2013-04-29T20:01:26Z</time>
      </trkpt>
      <trkpt lat="59.4553597" lon="17.8126967">
        <ele>18.6</ele>
        <time>2013-04-29T20:01:27Z</time>
      </trkpt>
      <trkpt lat="59.4553517" lon="17.8126092">
        <ele>18.6</ele>
        <time>2013-04-29T20:01:28Z</time>
      </trkpt>
      <trkpt lat="59.4553268" lon="17.8124515">
        <ele>18.4</ele>
        <time>2013-04-29T20:01:30Z</time>
      </trkpt>
      <trkpt lat="59.4553098" lon="17.8123872">
        <ele>18.4</ele>
        <time>2013-04-29T20:01:31Z</time>
      </trkpt>
      <trkpt lat="59.4552549" lon="17.812085">
        <ele>18</ele>
        <time>2013-04-29T20:01:35Z</time>
      </trkpt>
      <trkpt lat="59.4552359" lon="17.8120011">
        <ele>18</ele>
        <time>2013-04-29T20:01:36Z</time>
      </trkpt>
      <trkpt lat="59.4551529" lon="17.8116898">
        <ele>17.8</ele>
        <time>2013-04-29T20:01:40Z</time>
      </trkpt>
      <trkpt lat="59.4551378" lon="17.811626">
        <ele>17.8</ele>
        <time>2013-04-29T20:01:41Z</time>
      </trkpt>
      <trkpt lat="59.4551204" lon="17.8115346">
        <ele>17.8</ele>
        <time>2013-04-29T20:01:42Z</time>
      </trkpt>
      <trkpt lat="59.4550784" lon="17.8112945">
        <ele>17.4</ele>
        <time>2013-04-29T20:01:45Z</time>
      </trkpt>
      <trkpt lat="59.4550536" lon="17.8111402">
        <ele>17.4</ele>
        <time>2013-04-29T20:01:47Z</time>
      </trkpt>
      <trkpt lat="59.4550257" lon="17.8110139">
        <ele>17.2</ele>
        <time>2013-04-29T20:01:49Z</time>
      </trkpt>
      <trkpt lat="59.4549904" lon="17.8107924">
        <ele>17.2</ele>
        <time>2013-04-29T20:01:52Z</time>
      </trkpt>
      <trkpt lat="59.4549651" lon="17.8107289">
        <ele>17.2</ele>
        <time>2013-04-29T20:01:53Z</time>
      </trkpt>
      <trkpt lat="59.4549564" lon="17.8106762">
        <ele>17</ele>
        <time>2013-04-29T20:01:54Z</time>
      </trkpt>
      <trkpt lat="59.4549044" lon="17.8104774">
        <ele>17</ele>
        <time>2013-04-29T20:01:57Z</time>
      </trkpt>
      <trkpt lat="59.4548649" lon="17.8103391">
        <ele>17</ele>
        <time>2013-04-29T20:01:59Z</time>
      </trkpt>
      <trkpt lat="59.4547359" lon="17.8099883">
        <ele>16.8</ele>
        <time>2013-04-29T20:02:04Z</time>
      </trkpt>
      <trkpt lat="59.4546588" lon="17.8097104">
        <ele>16.8</ele>
        <time>2013-04-29T20:02:08Z</time>
      </trkpt>
      <trkpt lat="59.4545849" lon="17.8095048">
        <ele>16.8</ele>
        <time>2013-04-29T20:02:11Z</time>
      </trkpt>
      <trkpt lat="59.4545266" lon="17.8093821">
        <ele>16.8</ele>
        <time>2013-04-29T20:02:13Z</time>
      </trkpt>
      <trkpt lat="59.4543562" lon="17.8090906">
        <ele>16.8</ele>
        <time>2013-04-29T20:02:18Z</time>
      </trkpt>
      <trkpt lat="59.4543268" lon="17.8090298">
        <ele>16.8</ele>
        <time>2013-04-29T20:02:19Z</time>
      </trkpt>
      <trkpt lat="59.45422" lon="17.8088293">
        <ele>16.8</ele>
        <time>2013-04-29T20:02:22Z</time>
      </trkpt>
      <trkpt lat="59.4541045" lon="17.8086179">
        <ele>16.8</ele>
        <time>2013-04-29T20:02:25Z</time>
      </trkpt>
      <trkpt lat="59.4539687" lon="17.8083897">
        <ele>16.6</ele>
        <time>2013-04-29T20:02:29Z</time>
      </trkpt>
      <trkpt lat="59.4539404" lon="17.8083457">
        <ele>16.6</ele>
        <time>2013-04-29T20:02:30Z</time>
      </trkpt>
      <trkpt lat="59.4539144" lon="17.8082875">
        <ele>16.6</ele>
        <time>2013-04-29T20:02:31Z</time>
      </trkpt>
      <trkpt lat="59.453817" lon="17.8081172">
        <ele>16.4</ele>
        <time>2013-04-29T20:02:34Z</time>
      </trkpt>
      <trkpt lat="59.4537834" lon="17.8080703">
        <ele>16.4</ele>
        <time>2013-04-29T20:02:35Z</time>
      </trkpt>
      <trkpt lat="59.4536641" lon="17.8079473">
        <ele>16.2</ele>
        <time>2013-04-29T20:02:38Z</time>
      </trkpt>
      <trkpt lat="59.4536253" lon="17.8078956">
        <ele>16.2</ele>
        <time>2013-04-29T20:02:39Z</time>
      </trkpt>
      <trkpt lat="59.4535211" lon="17.8077233">
        <ele>16</ele>
        <time>2013-04-29T20:02:42Z</time>
      </trkpt>
      <trkpt lat="59.4534875" lon="17.8075816">
        <ele>16</ele>
        <time>2013-04-29T20:02:44Z</time>
      </trkpt>
      <trkpt lat="59.4534634" lon="17.8074068">
        <ele>16</ele>
        <time>2013-04-29T20:02:46Z</time>
      </trkpt>
      <trkpt lat="59.4534432" lon="17.8072623">
        <ele>16</ele>
        <time>2013-04-29T20:02:48Z</time>
      </trkpt>
      <trkpt lat="59.4534258" lon="17.8072027">
        <ele>15.8</ele>
        <time>2013-04-29T20:02:49Z</time>
      </trkpt>
      <trkpt lat="59.4533616" lon="17.8069629">
        <ele>15.8</ele>
        <time>2013-04-29T20:02:53Z</time>
      </trkpt>
      <trkpt lat="59.4533512" lon="17.8067512">
        <ele>15.8</ele>
        <time>2013-04-29T20:02:57Z</time>
      </trkpt>
      <trkpt lat="59.4533786" lon="17.8066053">
        <ele>15.8</ele>
        <time>2013-04-29T20:02:59Z</time>
      </trkpt>
      <trkpt lat="59.4533921" lon="17.8065579">
        <ele>15.6</ele>
        <time>2013-04-29T20:03:00Z</time>
      </trkpt>
      <trkpt lat="59.4534986" lon="17.8063698">
        <ele>15.6</ele>
        <time>2013-04-29T20:03:04Z</time>
      </trkpt>
      <trkpt lat="59.4536641" lon="17.8061316">
        <ele>15.6</ele>
        <time>2013-04-29T20:03:09Z</time>
      </trkpt>
      <trkpt lat="59.453807" lon="17.8058347">
        <ele>16</ele>
        <time>2013-04-29T20:03:14Z</time>
      </trkpt>
      <trkpt lat="59.4539397" lon="17.8056185">
        <ele>16.2</ele>
        <time>2013-04-29T20:03:18Z</time>
      </trkpt>
      <trkpt lat="59.45398" lon="17.8055503">
        <ele>16.4</ele>
        <time>2013-04-29T20:03:19Z</time>
      </trkpt>
      <trkpt lat="59.4541126" lon="17.8053158">
        <ele>16.4</ele>
        <time>2013-04-29T20:03:23Z</time>
      </trkpt>
      <trkpt lat="59.4542671" lon="17.8050614">
        <ele>16.8</ele>
        <time>2013-04-29T20:03:28Z</time>
      </trkpt>
      <trkpt lat="59.4543972" lon="17.8048433">
        <ele>17</ele>
        <time>2013-04-29T20:03:33Z</time>
      </trkpt>
      <trkpt lat="59.4545799" lon="17.80456">
        <ele>17</ele>
        <time>2013-04-29T20:03:39Z</time>
      </trkpt>
      <trkpt lat="59.4548371" lon="17.8043203">
        <ele>17</ele>
        <time>2013-04-29T20:03:45Z</time>
      </trkpt>
      <trkpt lat="59.4548776" lon="17.8042992">
        <ele>16.8</ele>
        <time>2013-04-29T20:03:46Z</time>
      </trkpt>
      <trkpt lat="59.4550091" lon="17.8042271">
        <ele>16.6</ele>
        <time>2013-04-29T20:03:49Z</time>
      </trkpt>
      <trkpt lat="59.4550829" lon="17.8042221">
        <ele>16.6</ele>
        <time>2013-04-29T20:03:51Z</time>
      </trkpt>
      <trkpt lat="59.4551418" lon="17.8041908">
        <ele>16.4</ele>
        <time>2013-04-29T20:03:53Z</time>
      </trkpt>
      <trkpt lat="59.4552248" lon="17.804197">
        <ele>16.2</ele>
        <time>2013-04-29T20:03:56Z</time>
      </trkpt>
      <trkpt lat="59.455279" lon="17.804203">
        <ele>16.2</ele>
        <time>2013-04-29T20:03:58Z</time>
      </trkpt>
      <trkpt lat="59.4554106" lon="17.8042818">
        <ele>16</ele>
        <time>2013-04-29T20:04:03Z</time>
      </trkpt>
      <trkpt lat="59.4556287" lon="17.8044143">
        <ele>15.6</ele>
        <time>2013-04-29T20:04:10Z</time>
      </trkpt>
      <trkpt lat="59.4557894" lon="17.8045562">
        <ele>15.4</ele>
        <time>2013-04-29T20:04:15Z</time>
      </trkpt>
      <trkpt lat="59.455988" lon="17.8047387">
        <ele>15.2</ele>
        <time>2013-04-29T20:04:21Z</time>
      </trkpt>
      <trkpt lat="59.4561837" lon="17.8049249">
        <ele>15</ele>
        <time>2013-04-29T20:04:27Z</time>
      </trkpt>
      <trkpt lat="59.456462" lon="17.8051043">
        <ele>14.8</ele>
        <time>2013-04-29T20:04:34Z</time>
      </trkpt>
      <trkpt lat="59.4566333" lon="17.8052285">
        <ele>14.6</ele>
        <time>2013-04-29T20:04:38Z</time>
      </trkpt>
      <trkpt lat="59.4566726" lon="17.8052467">
        <ele>14.4</ele>
        <time>2013-04-29T20:04:39Z</time>
      </trkpt>
      <trkpt lat="59.4568416" lon="17.8053435">
        <ele>14.4</ele>
        <time>2013-04-29T20:04:43Z</time>
      </trkpt>
      <trkpt lat="59.4570044" lon="17.805427">
        <ele>14.2</ele>
        <time>2013-04-29T20:04:47Z</time>
      </trkpt>
      <trkpt lat="59.4570436" lon="17.8054397">
        <ele>14.2</ele>
        <time>2013-04-29T20:04:48Z</time>
      </trkpt>
      <trkpt lat="59.4570828" lon="17.8054545">
        <ele>14.2</ele>
        <time>2013-04-29T20:04:49Z</time>
      </trkpt>
      <trkpt lat="59.4571882" lon="17.8055306">
        <ele>14</ele>
        <time>2013-04-29T20:04:52Z</time>
      </trkpt>
      <trkpt lat="59.457227" lon="17.8055436">
        <ele>14</ele>
        <time>2013-04-29T20:04:53Z</time>
      </trkpt>
      <trkpt lat="59.4574409" lon="17.8056791">
        <ele>14</ele>
        <time>2013-04-29T20:04:59Z</time>
      </trkpt>
      <trkpt lat="59.4576468" lon="17.8057725">
        <ele>13.8</ele>
        <time>2013-04-29T20:05:04Z</time>
      </trkpt>
      <trkpt lat="59.4578974" lon="17.805895">
        <ele>13.8</ele>
        <time>2013-04-29T20:05:10Z</time>
      </trkpt>
      <trkpt lat="59.4579781" lon="17.8059293">
        <ele>14</ele>
        <time>2013-04-29T20:05:12Z</time>
      </trkpt>
      <trkpt lat="59.4581427" lon="17.8059984">
        <ele>14.2</ele>
        <time>2013-04-29T20:05:16Z</time>
      </trkpt>
      <trkpt lat="59.4581831" lon="17.8060092">
        <ele>14.2</ele>
        <time>2013-04-29T20:05:17Z</time>
      </trkpt>
      <trkpt lat="59.4583053" lon="17.8060182">
        <ele>14.6</ele>
        <time>2013-04-29T20:05:20Z</time>
      </trkpt>
      <trkpt lat="59.4584235" lon="17.8060605">
        <ele>15</ele>
        <time>2013-04-29T20:05:23Z</time>
      </trkpt>
      <trkpt lat="59.4584634" lon="17.8060662">
        <ele>15</ele>
        <time>2013-04-29T20:05:24Z</time>
      </trkpt>
      <trkpt lat="59.4586995" lon="17.8061027">
        <ele>15</ele>
        <time>2013-04-29T20:05:30Z</time>
      </trkpt>
      <trkpt lat="59.4588627" lon="17.8061692">
        <ele>15.2</ele>
        <time>2013-04-29T20:05:35Z</time>
      </trkpt>
      <trkpt lat="59.4590402" lon="17.8062559">
        <ele>16</ele>
        <time>2013-04-29T20:05:41Z</time>
      </trkpt>
      <trkpt lat="59.459198" lon="17.8062853">
        <ele>17</ele>
        <time>2013-04-29T20:05:46Z</time>
      </trkpt>
      <trkpt lat="59.4594394" lon="17.8063367">
        <ele>18.6</ele>
        <time>2013-04-29T20:05:53Z</time>
      </trkpt>
      <trkpt lat="59.4596898" lon="17.8063383">
        <ele>20</ele>
        <time>2013-04-29T20:05:59Z</time>
      </trkpt>
      <trkpt lat="59.4598892" lon="17.806391">
        <ele>21</ele>
        <time>2013-04-29T20:06:04Z</time>
      </trkpt>
      <trkpt lat="59.4600335" lon="17.8064331">
        <ele>22</ele>
        <time>2013-04-29T20:06:08Z</time>
      </trkpt>
      <trkpt lat="59.4601225" lon="17.8064432">
        <ele>22.4</ele>
        <time>2013-04-29T20:06:10Z</time>
      </trkpt>
      <trkpt lat="59.4602628" lon="17.8064602">
        <ele>23.4</ele>
        <time>2013-04-29T20:06:13Z</time>
      </trkpt>
      <trkpt lat="59.4604343" lon="17.8064787">
        <ele>24</ele>
        <time>2013-04-29T20:06:17Z</time>
      </trkpt>
      <trkpt lat="59.4605158" lon="17.806493">
        <ele>24.2</ele>
        <time>2013-04-29T20:06:19Z</time>
      </trkpt>
      <trkpt lat="59.4607357" lon="17.8064947">
        <ele>24.8</ele>
        <time>2013-04-29T20:06:24Z</time>
      </trkpt>
      <trkpt lat="59.4608391" lon="17.8064698">
        <ele>24.8</ele>
        <time>2013-04-29T20:06:26Z</time>
      </trkpt>
      <trkpt lat="59.4609986" lon="17.8064242">
        <ele>24.8</ele>
        <time>2013-04-29T20:06:29Z</time>
      </trkpt>
      <trkpt lat="59.4611914" lon="17.80636">
        <ele>24.8</ele>
        <time>2013-04-29T20:06:33Z</time>
      </trkpt>
      <trkpt lat="59.4613241" lon="17.8063382">
        <ele>24.8</ele>
        <time>2013-04-29T20:06:36Z</time>
      </trkpt>
      <trkpt lat="59.4613975" lon="17.8063322">
        <ele>24.6</ele>
        <time>2013-04-29T20:06:38Z</time>
      </trkpt>
      <trkpt lat="59.4614721" lon="17.806326">
        <ele>24.6</ele>
        <time>2013-04-29T20:06:40Z</time>
      </trkpt>
      <trkpt lat="59.4615291" lon="17.8063456">
        <ele>24.6</ele>
        <time>2013-04-29T20:06:42Z</time>
      </trkpt>
      <trkpt lat="59.461549" lon="17.8063517">
        <ele>24.8</ele>
        <time>2013-04-29T20:06:45Z</time>
      </trkpt>
      <trkpt lat="59.4615396" lon="17.8063532">
        <ele>24.8</ele>
        <time>2013-04-29T20:06:46Z</time>
      </trkpt>
      <trkpt lat="59.4614935" lon="17.8063564">
        <ele>25</ele>
        <time>2013-04-29T20:06:48Z</time>
      </trkpt>
      <trkpt lat="59.4613773" lon="17.8063729">
        <ele>25.2</ele>
        <time>2013-04-29T20:06:51Z</time>
      </trkpt>
      <trkpt lat="59.4611763" lon="17.806447">
        <ele>25.4</ele>
        <time>2013-04-29T20:06:55Z</time>
      </trkpt>
      <trkpt lat="59.4609045" lon="17.8066032">
        <ele>25.4</ele>
        <time>2013-04-29T20:07:01Z</time>
      </trkpt>
      <trkpt lat="59.4607121" lon="17.8066052">
        <ele>25.4</ele>
        <time>2013-04-29T20:07:06Z</time>
      </trkpt>
      <trkpt lat="59.4606355" lon="17.8065993">
        <ele>25.6</ele>
        <time>2013-04-29T20:07:08Z</time>
      </trkpt>
      <trkpt lat="59.4605091" lon="17.8065768">
        <ele>25.6</ele>
        <time>2013-04-29T20:07:11Z</time>
      </trkpt>
      <trkpt lat="59.4603541" lon="17.8065835">
        <ele>25.6</ele>
        <time>2013-04-29T20:07:15Z</time>
      </trkpt>
      <trkpt lat="59.4602206" lon="17.8065827">
        <ele>25.8</ele>
        <time>2013-04-29T20:07:18Z</time>
      </trkpt>
      <trkpt lat="59.4601289" lon="17.8065891">
        <ele>26</ele>
        <time>2013-04-29T20:07:20Z</time>
      </trkpt>
      <trkpt lat="59.4599561" lon="17.8065594">
        <ele>26.2</ele>
        <time>2013-04-29T20:07:24Z</time>
      </trkpt>
      <trkpt lat="59.4598796" lon="17.8065451">
        <ele>26.4</ele>
        <time>2013-04-29T20:07:26Z</time>
      </trkpt>
      <trkpt lat="59.4597522" lon="17.8065129">
        <ele>26.8</ele>
        <time>2013-04-29T20:07:29Z</time>
      </trkpt>
      <trkpt lat="59.4596254" lon="17.8064865">
        <ele>27.2</ele>
        <time>2013-04-29T20:07:32Z</time>
      </trkpt>
      <trkpt lat="59.4595537" lon="17.8064699">
        <ele>27.6</ele>
        <time>2013-04-29T20:07:34Z</time>
      </trkpt>
      <trkpt lat="59.4593881" lon="17.8064133">
        <ele>28.2</ele>
        <time>2013-04-29T20:07:38Z</time>
      </trkpt>
      <trkpt lat="59.4593497" lon="17.8064067">
        <ele>28.2</ele>
        <time>2013-04-29T20:07:39Z</time>
      </trkpt>
      <trkpt lat="59.4592201" lon="17.8063804">
        <ele>28.4</ele>
        <time>2013-04-29T20:07:42Z</time>
      </trkpt>
      <trkpt lat="59.4591281" lon="17.8063736">
        <ele>28.8</ele>
        <time>2013-04-29T20:07:44Z</time>
      </trkpt>
      <trkpt lat="59.4590016" lon="17.8063599">
        <ele>29</ele>
        <time>2013-04-29T20:07:47Z</time>
      </trkpt>
      <trkpt lat="59.4589654" lon="17.8063561">
        <ele>29.2</ele>
        <time>2013-04-29T20:07:48Z</time>
      </trkpt>
      <trkpt lat="59.4588925" lon="17.8063338">
        <ele>29.2</ele>
        <time>2013-04-29T20:07:50Z</time>
      </trkpt>
      <trkpt lat="59.4587965" lon="17.8063029">
        <ele>29.4</ele>
        <time>2013-04-29T20:07:52Z</time>
      </trkpt>
      <trkpt lat="59.4587442" lon="17.8062884">
        <ele>29.4</ele>
        <time>2013-04-29T20:07:53Z</time>
      </trkpt>
      <trkpt lat="59.4586473" lon="17.806263">
        <ele>29.4</ele>
        <time>2013-04-29T20:07:55Z</time>
      </trkpt>
      <trkpt lat="59.4585436" lon="17.8062515">
        <ele>29.6</ele>
        <time>2013-04-29T20:07:57Z</time>
      </trkpt>
      <trkpt lat="59.4583533" lon="17.8062393">
        <ele>29.4</ele>
        <time>2013-04-29T20:08:01Z</time>
      </trkpt>
      <trkpt lat="59.4582345" lon="17.8062371">
        <ele>29.4</ele>
        <time>2013-04-29T20:08:03Z</time>
      </trkpt>
      <trkpt lat="59.4581242" lon="17.8061944">
        <ele>29.4</ele>
        <time>2013-04-29T20:08:05Z</time>
      </trkpt>
      <trkpt lat="59.4579867" lon="17.8061277">
        <ele>29.4</ele>
        <time>2013-04-29T20:08:08Z</time>
      </trkpt>
      <trkpt lat="59.457808" lon="17.8060328">
        <ele>29.2</ele>
        <time>2013-04-29T20:08:12Z</time>
      </trkpt>
      <trkpt lat="59.4577599" lon="17.8060218">
        <ele>29.2</ele>
        <time>2013-04-29T20:08:13Z</time>
      </trkpt>
      <trkpt lat="59.4577179" lon="17.8059984">
        <ele>29.2</ele>
        <time>2013-04-29T20:08:14Z</time>
      </trkpt>
      <trkpt lat="59.4575488" lon="17.8058858">
        <ele>29.2</ele>
        <time>2013-04-29T20:08:18Z</time>
      </trkpt>
      <trkpt lat="59.4575125" lon="17.8058607">
        <ele>29.2</ele>
        <time>2013-04-29T20:08:19Z</time>
      </trkpt>
      <trkpt lat="59.4574361" lon="17.805816">
        <ele>29.2</ele>
        <time>2013-04-29T20:08:21Z</time>
      </trkpt>
      <trkpt lat="59.4573895" lon="17.8058001">
        <ele>29.2</ele>
        <time>2013-04-29T20:08:22Z</time>
      </trkpt>
      <trkpt lat="59.4573477" lon="17.8057741">
        <ele>29.2</ele>
        <time>2013-04-29T20:08:23Z</time>
      </trkpt>
      <trkpt lat="59.457235" lon="17.8057172">
        <ele>29</ele>
        <time>2013-04-29T20:08:26Z</time>
      </trkpt>
      <trkpt lat="59.4571511" lon="17.8056519">
        <ele>29</ele>
        <time>2013-04-29T20:08:29Z</time>
      </trkpt>
      <trkpt lat="59.4571347" lon="17.8056012">
        <ele>29</ele>
        <time>2013-04-29T20:08:30Z</time>
      </trkpt>
      <trkpt lat="59.457156" lon="17.8054527">
        <ele>29</ele>
        <time>2013-04-29T20:08:33Z</time>
      </trkpt>
      <trkpt lat="59.4572498" lon="17.805258">
        <ele>28.8</ele>
        <time>2013-04-29T20:08:37Z</time>
      </trkpt>
      <trkpt lat="59.4572804" lon="17.8052026">
        <ele>28.8</ele>
        <time>2013-04-29T20:08:38Z</time>
      </trkpt>
      <trkpt lat="59.4574321" lon="17.8049487">
        <ele>28.6</ele>
        <time>2013-04-29T20:08:43Z</time>
      </trkpt>
      <trkpt lat="59.4575408" lon="17.804786">
        <ele>28.4</ele>
        <time>2013-04-29T20:08:46Z</time>
      </trkpt>
      <trkpt lat="59.4575833" lon="17.8047343">
        <ele>28.4</ele>
        <time>2013-04-29T20:08:47Z</time>
      </trkpt>
      <trkpt lat="59.4578207" lon="17.8044947">
        <ele>28</ele>
        <time>2013-04-29T20:08:52Z</time>
      </trkpt>
      <trkpt lat="59.4578744" lon="17.8044592">
        <ele>27.8</ele>
        <time>2013-04-29T20:08:53Z</time>
      </trkpt>
      <trkpt lat="59.4580364" lon="17.8043641">
        <ele>27.6</ele>
        <time>2013-04-29T20:08:56Z</time>
      </trkpt>
      <trkpt lat="59.4581383" lon="17.8043191">
        <ele>27.4</ele>
        <time>2013-04-29T20:08:58Z</time>
      </trkpt>
      <trkpt lat="59.4582328" lon="17.8043214">
        <ele>27.2</ele>
        <time>2013-04-29T20:09:00Z</time>
      </trkpt>
      <trkpt lat="59.4584728" lon="17.8043891">
        <ele>26.6</ele>
        <time>2013-04-29T20:09:05Z</time>
      </trkpt>
      <trkpt lat="59.4586348" lon="17.8044084">
        <ele>26.2</ele>
        <time>2013-04-29T20:09:08Z</time>
      </trkpt>
      <trkpt lat="59.4586802" lon="17.8043972">
        <ele>26</ele>
        <time>2013-04-29T20:09:09Z</time>
      </trkpt>
      <trkpt lat="59.4587552" lon="17.8043837">
        <ele>25.8</ele>
        <time>2013-04-29T20:09:11Z</time>
      </trkpt>
      <trkpt lat="59.4588123" lon="17.8043552">
        <ele>25.6</ele>
        <time>2013-04-29T20:09:13Z</time>
      </trkpt>
      <trkpt lat="59.4588664" lon="17.8043127">
        <ele>25.4</ele>
        <time>2013-04-29T20:09:15Z</time>
      </trkpt>
      <trkpt lat="59.4589115" lon="17.8042712">
        <ele>25.2</ele>
        <time>2013-04-29T20:09:17Z</time>
      </trkpt>
    </trkseg>
  </trk>
</gpx>